<?xml version="1.0" encoding="UTF-8"?>
<gpx version="1.1" creator="2bulu-scraper" xmlns="http://www.topografix.com/GPX/1/1">
  <metadata><name>25峨眉山低山区报国寺-神水阁-善觉寺-报国寺</name><desc>source: 2bulu.com trackId=81379203; exported 2026-09-01T16:25:37.163Z</desc>
    <bounds minlat="29.5641484" minlon="103.4076508" maxlat="29.5733379" maxlon="103.4442359"/>
    <link href="https://www.2bulu.com/track/t-sNdaIVdQg2np%252FR2KBg5Tzw%253D%253D.htm"><text>2bulu 源页面</text></link>
  </metadata>
  <wpt lat="29.5683284" lon="103.4434638"><ele>470</ele><name>
        </name></wpt>
  <wpt lat="29.5683284" lon="103.4434638"><ele>470</ele><name>
        </name></wpt>
  <wpt lat="29.568904" lon="103.441543"><ele>485</ele><name>
        </name></wpt>
  <wpt lat="29.5652442" lon="103.4348155"><ele>530</ele><name>
        </name></wpt>
  <wpt lat="29.5647417" lon="103.4352533"><ele>534</ele><name>
        </name></wpt>
  <wpt lat="29.5641484" lon="103.4348548"><ele>553</ele><name>
        </name></wpt>
  <wpt lat="29.56547" lon="103.427844"><ele>600</ele><name>
        </name></wpt>
  <wpt lat="29.5649123" lon="103.4268417"><ele>608</ele><name>
        </name></wpt>
  <wpt lat="29.5651733" lon="103.4256924"><ele>641</ele><name>
        </name></wpt>
  <wpt lat="29.566254" lon="103.4210371"><ele>799</ele><name>
        </name></wpt>
  <wpt lat="29.5673796" lon="103.4204067"><ele>830</ele><name>
        </name></wpt>
  <wpt lat="29.5698223" lon="103.4183675"><ele>881</ele><name>
        </name></wpt>
  <wpt lat="29.5676436" lon="103.4083968"><ele>788</ele><name>
        </name></wpt>
  <wpt lat="29.5666012" lon="103.4078675"><ele>783</ele><name>
        </name></wpt>
  <wpt lat="29.5666502" lon="103.4077279"><ele>784</ele><name>
        </name></wpt>
  <wpt lat="29.5681028" lon="103.409219"><ele>807</ele><name>
        </name></wpt>
  <wpt lat="29.5692366" lon="103.4128649"><ele>874</ele><name>
        </name></wpt>
  <wpt lat="29.5695606" lon="103.4207702"><ele>890</ele><name>
        </name></wpt>
  <wpt lat="29.5715762" lon="103.4229165"><ele>884</ele><name>
        </name></wpt>
  <wpt lat="29.5727403" lon="103.423539"><ele>869</ele><name>
        </name></wpt>
  <wpt lat="29.572668" lon="103.4252103"><ele>890</ele><name>
        </name></wpt>
  <wpt lat="29.572668" lon="103.4252103"><ele>890</ele><name>
        </name></wpt>
  <wpt lat="29.5719857" lon="103.4283362"><ele>897</ele><name>左转
        </name></wpt>
  <wpt lat="29.5714822" lon="103.4297946"><ele>862</ele><name>
        </name></wpt>
  <wpt lat="29.5701585" lon="103.4330025"><ele>703</ele><name>
        </name></wpt>
  <wpt lat="29.5697159" lon="103.434949"><ele>688</ele><name>
        </name></wpt>
  <wpt lat="29.5693934" lon="103.4408883"><ele>493</ele><name>
        </name></wpt>
  <wpt lat="29.5693934" lon="103.4408883"><ele>493</ele><name>
        </name></wpt>
  <wpt lat="29.5707564" lon="103.4412048"><ele>496</ele><name>
        </name></wpt>
  <wpt lat="29.5720382" lon="103.4417673"><ele>502</ele><name>
        </name></wpt>
  <wpt lat="29.5725753" lon="103.4421207"><ele>498</ele><name>
        </name></wpt>
  <wpt lat="29.5723406" lon="103.4422688"><ele>503</ele><name>
        </name></wpt>
  <wpt lat="29.5695703" lon="103.4437953"><ele>492</ele><name>
        </name></wpt>
  <trk><name>25峨眉山低山区报国寺-神水阁-善觉寺-报国寺</name>
      <trkseg>
        <trkpt lat="29.568373" lon="103.4437966"><ele>488.86</ele><time>2026-03-30T20:43:48.000Z</time></trkpt>
        <trkpt lat="29.568342" lon="103.4437179"><ele>488.86</ele><time>2026-03-30T20:44:00.000Z</time></trkpt>
        <trkpt lat="29.5683899" lon="103.4436563"><ele>487.31</ele><time>2026-03-30T20:44:08.000Z</time></trkpt>
        <trkpt lat="29.568421" lon="103.4435579"><ele>484.14</ele><time>2026-03-30T20:44:20.000Z</time></trkpt>
        <trkpt lat="29.5684279" lon="103.4435153"><ele>480.01</ele><time>2026-03-30T20:44:30.000Z</time></trkpt>
        <trkpt lat="29.5683623" lon="103.4434807"><ele>476.83</ele><time>2026-03-30T20:44:46.000Z</time></trkpt>
        <trkpt lat="29.5683284" lon="103.4434638"><ele>473.58</ele><time>2026-03-30T20:44:50.000Z</time></trkpt>
        <trkpt lat="29.568379" lon="103.4434253"><ele>471.91</ele><time>2026-03-30T20:45:06.000Z</time></trkpt>
        <trkpt lat="29.5684233" lon="103.4433403"><ele>472.35</ele><time>2026-03-30T20:45:14.000Z</time></trkpt>
        <trkpt lat="29.5685116" lon="103.4433026"><ele>473.21</ele><time>2026-03-30T20:45:32.000Z</time></trkpt>
        <trkpt lat="29.568599" lon="103.4432355"><ele>475.44</ele><time>2026-03-30T20:45:40.000Z</time></trkpt>
        <trkpt lat="29.5686889" lon="103.4431796"><ele>478.14</ele><time>2026-03-30T20:45:48.000Z</time></trkpt>
        <trkpt lat="29.5687587" lon="103.4431027"><ele>477.13</ele><time>2026-03-30T20:46:04.000Z</time></trkpt>
        <trkpt lat="29.5687935" lon="103.4429975"><ele>474.61</ele><time>2026-03-30T20:46:14.000Z</time></trkpt>
        <trkpt lat="29.5688618" lon="103.4429263"><ele>473.62</ele><time>2026-03-30T20:46:24.000Z</time></trkpt>
        <trkpt lat="29.5689346" lon="103.4428393"><ele>474.45</ele><time>2026-03-30T20:46:36.000Z</time></trkpt>
        <trkpt lat="29.5689372" lon="103.4427381"><ele>475.17</ele><time>2026-03-30T20:46:46.000Z</time></trkpt>
        <trkpt lat="29.5688726" lon="103.4426614"><ele>475.22</ele><time>2026-03-30T20:46:56.000Z</time></trkpt>
        <trkpt lat="29.5687662" lon="103.4426233"><ele>478.07</ele><time>2026-03-30T20:47:08.000Z</time></trkpt>
        <trkpt lat="29.5687154" lon="103.4425264"><ele>478.64</ele><time>2026-03-30T20:47:16.000Z</time></trkpt>
        <trkpt lat="29.5687255" lon="103.4424049"><ele>478.92</ele><time>2026-03-30T20:47:24.000Z</time></trkpt>
        <trkpt lat="29.5687672" lon="103.4422828"><ele>478.96</ele><time>2026-03-30T20:47:32.000Z</time></trkpt>
        <trkpt lat="29.5687425" lon="103.4421688"><ele>480.4</ele><time>2026-03-30T20:47:42.000Z</time></trkpt>
        <trkpt lat="29.5687261" lon="103.4420467"><ele>482.02</ele><time>2026-03-30T20:47:52.000Z</time></trkpt>
        <trkpt lat="29.5687226" lon="103.4420233"><ele>483.47</ele><time>2026-03-30T20:47:54.000Z</time></trkpt>
        <trkpt lat="29.568704" lon="103.4419512"><ele>484.32</ele><time>2026-03-30T20:48:14.000Z</time></trkpt>
        <trkpt lat="29.568696" lon="103.4418507"><ele>484.12</ele><time>2026-03-30T20:48:20.000Z</time></trkpt>
        <trkpt lat="29.5687177" lon="103.4417403"><ele>483.89</ele><time>2026-03-30T20:48:28.000Z</time></trkpt>
        <trkpt lat="29.56878" lon="103.4416582"><ele>484.69</ele><time>2026-03-30T20:48:44.000Z</time></trkpt>
        <trkpt lat="29.5688691" lon="103.4416228"><ele>483.47</ele><time>2026-03-30T20:48:56.000Z</time></trkpt>
        <trkpt lat="29.568904" lon="103.441543"><ele>483.26</ele><time>2026-03-30T20:49:04.000Z</time></trkpt>
        <trkpt lat="29.5689387" lon="103.4414381"><ele>484.06</ele><time>2026-03-30T20:49:22.000Z</time></trkpt>
        <trkpt lat="29.5688715" lon="103.4413795"><ele>483.5</ele><time>2026-03-30T20:49:36.000Z</time></trkpt>
        <trkpt lat="29.5687701" lon="103.4413647"><ele>481.7</ele><time>2026-03-30T20:49:42.000Z</time></trkpt>
        <trkpt lat="29.5686693" lon="103.4413386"><ele>481.98</ele><time>2026-03-30T20:49:48.000Z</time></trkpt>
        <trkpt lat="29.5686466" lon="103.4412409"><ele>483.64</ele><time>2026-03-30T20:50:02.000Z</time></trkpt>
        <trkpt lat="29.5686454" lon="103.4411147"><ele>483.52</ele><time>2026-03-30T20:50:12.000Z</time></trkpt>
        <trkpt lat="29.5686494" lon="103.4409816"><ele>484.09</ele><time>2026-03-30T20:50:22.000Z</time></trkpt>
        <trkpt lat="29.5686048" lon="103.440871"><ele>484.36</ele><time>2026-03-30T20:50:32.000Z</time></trkpt>
        <trkpt lat="29.5686023" lon="103.440764"><ele>485.07</ele><time>2026-03-30T20:50:44.000Z</time></trkpt>
        <trkpt lat="29.5686704" lon="103.4407112"><ele>483.9</ele><time>2026-03-30T20:50:52.000Z</time></trkpt>
        <trkpt lat="29.5686934" lon="103.440615"><ele>482.84</ele><time>2026-03-30T20:51:02.000Z</time></trkpt>
        <trkpt lat="29.5686926" lon="103.4405068"><ele>482.78</ele><time>2026-03-30T20:51:10.000Z</time></trkpt>
        <trkpt lat="29.5687215" lon="103.4403906"><ele>485.09</ele><time>2026-03-30T20:51:20.000Z</time></trkpt>
        <trkpt lat="29.5686854" lon="103.4402828"><ele>488.19</ele><time>2026-03-30T20:51:32.000Z</time></trkpt>
        <trkpt lat="29.5685944" lon="103.4402107"><ele>489.3</ele><time>2026-03-30T20:51:42.000Z</time></trkpt>
        <trkpt lat="29.5684974" lon="103.4401451"><ele>489.53</ele><time>2026-03-30T20:51:50.000Z</time></trkpt>
        <trkpt lat="29.5684264" lon="103.4400673"><ele>489.72</ele><time>2026-03-30T20:52:00.000Z</time></trkpt>
        <trkpt lat="29.5683786" lon="103.4399746"><ele>489.94</ele><time>2026-03-30T20:52:06.000Z</time></trkpt>
        <trkpt lat="29.5683483" lon="103.4398711"><ele>491.6</ele><time>2026-03-30T20:52:14.000Z</time></trkpt>
        <trkpt lat="29.5683272" lon="103.4397638"><ele>494.34</ele><time>2026-03-30T20:52:22.000Z</time></trkpt>
        <trkpt lat="29.5682903" lon="103.439651"><ele>496.04</ele><time>2026-03-30T20:52:32.000Z</time></trkpt>
        <trkpt lat="29.568208" lon="103.4395961"><ele>496.25</ele><time>2026-03-30T20:52:46.000Z</time></trkpt>
        <trkpt lat="29.5681173" lon="103.4395474"><ele>496.08</ele><time>2026-03-30T20:52:58.000Z</time></trkpt>
        <trkpt lat="29.5680186" lon="103.4395137"><ele>495.93</ele><time>2026-03-30T20:53:08.000Z</time></trkpt>
        <trkpt lat="29.5679312" lon="103.4395582"><ele>495.74</ele><time>2026-03-30T20:53:18.000Z</time></trkpt>
        <trkpt lat="29.5678304" lon="103.4396165"><ele>496.37</ele><time>2026-03-30T20:53:28.000Z</time></trkpt>
        <trkpt lat="29.5677367" lon="103.4396062"><ele>494.94</ele><time>2026-03-30T20:53:36.000Z</time></trkpt>
        <trkpt lat="29.5676385" lon="103.4395763"><ele>492.65</ele><time>2026-03-30T20:53:46.000Z</time></trkpt>
        <trkpt lat="29.5675468" lon="103.4395253"><ele>490.25</ele><time>2026-03-30T20:53:54.000Z</time></trkpt>
        <trkpt lat="29.5674737" lon="103.4394489"><ele>489.37</ele><time>2026-03-30T20:54:04.000Z</time></trkpt>
        <trkpt lat="29.5674046" lon="103.4393722"><ele>490.45</ele><time>2026-03-30T20:54:12.000Z</time></trkpt>
        <trkpt lat="29.5673211" lon="103.4393027"><ele>490.58</ele><time>2026-03-30T20:54:22.000Z</time></trkpt>
        <trkpt lat="29.5672507" lon="103.4392285"><ele>492.51</ele><time>2026-03-30T20:54:30.000Z</time></trkpt>
        <trkpt lat="29.5672083" lon="103.4391284"><ele>494.04</ele><time>2026-03-30T20:54:38.000Z</time></trkpt>
        <trkpt lat="29.5671518" lon="103.4390466"><ele>493.87</ele><time>2026-03-30T20:54:48.000Z</time></trkpt>
        <trkpt lat="29.5670952" lon="103.4389557"><ele>493.26</ele><time>2026-03-30T20:55:00.000Z</time></trkpt>
        <trkpt lat="29.5670099" lon="103.438939"><ele>492.85</ele><time>2026-03-30T20:55:10.000Z</time></trkpt>
        <trkpt lat="29.5669174" lon="103.438919"><ele>495.46</ele><time>2026-03-30T20:55:18.000Z</time></trkpt>
        <trkpt lat="29.5668419" lon="103.4388515"><ele>497.74</ele><time>2026-03-30T20:55:26.000Z</time></trkpt>
        <trkpt lat="29.5667889" lon="103.4387496"><ele>499.6</ele><time>2026-03-30T20:55:34.000Z</time></trkpt>
        <trkpt lat="29.5667601" lon="103.4386392"><ele>501.54</ele><time>2026-03-30T20:55:42.000Z</time></trkpt>
        <trkpt lat="29.5667033" lon="103.4385443"><ele>503.4</ele><time>2026-03-30T20:55:52.000Z</time></trkpt>
        <trkpt lat="29.5666848" lon="103.4384187"><ele>504.79</ele><time>2026-03-30T20:56:00.000Z</time></trkpt>
        <trkpt lat="29.5666456" lon="103.4383135"><ele>507.95</ele><time>2026-03-30T20:56:08.000Z</time></trkpt>
        <trkpt lat="29.5666008" lon="103.4382088"><ele>508.65</ele><time>2026-03-30T20:56:16.000Z</time></trkpt>
        <trkpt lat="29.5665843" lon="103.4381043"><ele>507.94</ele><time>2026-03-30T20:56:24.000Z</time></trkpt>
        <trkpt lat="29.5666148" lon="103.4379869"><ele>507.49</ele><time>2026-03-30T20:56:34.000Z</time></trkpt>
        <trkpt lat="29.5665862" lon="103.4378904"><ele>508.52</ele><time>2026-03-30T20:56:42.000Z</time></trkpt>
        <trkpt lat="29.5664978" lon="103.4378644"><ele>508.69</ele><time>2026-03-30T20:56:50.000Z</time></trkpt>
        <trkpt lat="29.5664242" lon="103.4377907"><ele>508.51</ele><time>2026-03-30T20:56:58.000Z</time></trkpt>
        <trkpt lat="29.5663552" lon="103.4377136"><ele>509.67</ele><time>2026-03-30T20:57:04.000Z</time></trkpt>
        <trkpt lat="29.5662863" lon="103.4376317"><ele>508.78</ele><time>2026-03-30T20:57:12.000Z</time></trkpt>
        <trkpt lat="29.5662091" lon="103.4375568"><ele>507.45</ele><time>2026-03-30T20:57:22.000Z</time></trkpt>
        <trkpt lat="29.5661419" lon="103.4374774"><ele>506.64</ele><time>2026-03-30T20:57:32.000Z</time></trkpt>
        <trkpt lat="29.5660624" lon="103.4374027"><ele>507.72</ele><time>2026-03-30T20:57:42.000Z</time></trkpt>
        <trkpt lat="29.5659865" lon="103.4373104"><ele>507.49</ele><time>2026-03-30T20:57:52.000Z</time></trkpt>
        <trkpt lat="29.5659214" lon="103.4372197"><ele>508.67</ele><time>2026-03-30T20:58:00.000Z</time></trkpt>
        <trkpt lat="29.565867" lon="103.4371326"><ele>508.79</ele><time>2026-03-30T20:58:06.000Z</time></trkpt>
        <trkpt lat="29.5658042" lon="103.4370364"><ele>509.41</ele><time>2026-03-30T20:58:14.000Z</time></trkpt>
        <trkpt lat="29.5658047" lon="103.4369197"><ele>510.21</ele><time>2026-03-30T20:58:22.000Z</time></trkpt>
        <trkpt lat="29.5658075" lon="103.4368058"><ele>511.74</ele><time>2026-03-30T20:58:30.000Z</time></trkpt>
        <trkpt lat="29.5658382" lon="103.4366993"><ele>513.52</ele><time>2026-03-30T20:58:38.000Z</time></trkpt>
        <trkpt lat="29.5658827" lon="103.4365949"><ele>513.24</ele><time>2026-03-30T20:58:46.000Z</time></trkpt>
        <trkpt lat="29.5658757" lon="103.4364767"><ele>513.05</ele><time>2026-03-30T20:58:56.000Z</time></trkpt>
        <trkpt lat="29.5658114" lon="103.4363776"><ele>515.06</ele><time>2026-03-30T20:59:06.000Z</time></trkpt>
        <trkpt lat="29.565745" lon="103.4362865"><ele>515.94</ele><time>2026-03-30T20:59:16.000Z</time></trkpt>
        <trkpt lat="29.56571" lon="103.4361724"><ele>515.97</ele><time>2026-03-30T20:59:26.000Z</time></trkpt>
        <trkpt lat="29.5656972" lon="103.4360595"><ele>515.52</ele><time>2026-03-30T20:59:36.000Z</time></trkpt>
        <trkpt lat="29.5656854" lon="103.4359471"><ele>517.19</ele><time>2026-03-30T20:59:50.000Z</time></trkpt>
        <trkpt lat="29.5656505" lon="103.4358343"><ele>520.76</ele><time>2026-03-30T21:00:02.000Z</time></trkpt>
        <trkpt lat="29.5655746" lon="103.4357585"><ele>523.49</ele><time>2026-03-30T21:00:26.000Z</time></trkpt>
        <trkpt lat="29.5654899" lon="103.4356927"><ele>525.57</ele><time>2026-03-30T21:00:34.000Z</time></trkpt>
        <trkpt lat="29.5654668" lon="103.4355935"><ele>525.85</ele><time>2026-03-30T21:00:46.000Z</time></trkpt>
        <trkpt lat="29.5654996" lon="103.4354979"><ele>525.36</ele><time>2026-03-30T21:01:00.000Z</time></trkpt>
        <trkpt lat="29.5655382" lon="103.4353862"><ele>527.32</ele><time>2026-03-30T21:01:20.000Z</time></trkpt>
        <trkpt lat="29.5655771" lon="103.435279"><ele>528.44</ele><time>2026-03-30T21:01:30.000Z</time></trkpt>
        <trkpt lat="29.5655895" lon="103.4351706"><ele>529.36</ele><time>2026-03-30T21:01:42.000Z</time></trkpt>
        <trkpt lat="29.5655336" lon="103.4350826"><ele>528.7</ele><time>2026-03-30T21:02:02.000Z</time></trkpt>
        <trkpt lat="29.5654829" lon="103.4349837"><ele>530.5</ele><time>2026-03-30T21:02:16.000Z</time></trkpt>
        <trkpt lat="29.5654035" lon="103.4349135"><ele>535.37</ele><time>2026-03-30T21:02:24.000Z</time></trkpt>
        <trkpt lat="29.5653322" lon="103.4348375"><ele>538.48</ele><time>2026-03-30T21:02:38.000Z</time></trkpt>
        <trkpt lat="29.5652442" lon="103.4348155"><ele>538.69</ele><time>2026-03-30T21:02:54.000Z</time></trkpt>
        <trkpt lat="29.5652108" lon="103.4348952"><ele>535.08</ele><time>2026-03-30T21:03:16.000Z</time></trkpt>
        <trkpt lat="29.5652015" lon="103.4350092"><ele>530.21</ele><time>2026-03-30T21:03:22.000Z</time></trkpt>
        <trkpt lat="29.5651954" lon="103.4351404"><ele>527.88</ele><time>2026-03-30T21:03:32.000Z</time></trkpt>
        <trkpt lat="29.5651423" lon="103.4352578"><ele>528.54</ele><time>2026-03-30T21:03:42.000Z</time></trkpt>
        <trkpt lat="29.5650661" lon="103.435331"><ele>527.79</ele><time>2026-03-30T21:03:52.000Z</time></trkpt>
        <trkpt lat="29.5649799" lon="103.4354042"><ele>527.34</ele><time>2026-03-30T21:04:04.000Z</time></trkpt>
        <trkpt lat="29.5648918" lon="103.4354541"><ele>527.75</ele><time>2026-03-30T21:04:12.000Z</time></trkpt>
        <trkpt lat="29.5648174" lon="103.4354066"><ele>529.12</ele><time>2026-03-30T21:04:32.000Z</time></trkpt>
        <trkpt lat="29.5647581" lon="103.4353035"><ele>529.69</ele><time>2026-03-30T21:04:44.000Z</time></trkpt>
        <trkpt lat="29.5647417" lon="103.4352533"><ele>531.15</ele><time>2026-03-30T21:04:50.000Z</time></trkpt>
        <trkpt lat="29.5646615" lon="103.4352284"><ele>532.56</ele><time>2026-03-30T21:05:00.000Z</time></trkpt>
        <trkpt lat="29.5645916" lon="103.4351549"><ele>535.36</ele><time>2026-03-30T21:05:08.000Z</time></trkpt>
        <trkpt lat="29.5645044" lon="103.4350931"><ele>536.45</ele><time>2026-03-30T21:05:20.000Z</time></trkpt>
        <trkpt lat="29.5644216" lon="103.4350293"><ele>537.33</ele><time>2026-03-30T21:05:28.000Z</time></trkpt>
        <trkpt lat="29.5643575" lon="103.4350756"><ele>538.13</ele><time>2026-03-30T21:05:36.000Z</time></trkpt>
        <trkpt lat="29.5642838" lon="103.4350915"><ele>539.48</ele><time>2026-03-30T21:05:44.000Z</time></trkpt>
        <trkpt lat="29.5642438" lon="103.4349989"><ele>540.26</ele><time>2026-03-30T21:07:10.000Z</time></trkpt>
        <trkpt lat="29.5641554" lon="103.4349571"><ele>541.48</ele><time>2026-03-30T21:07:38.000Z</time></trkpt>
        <trkpt lat="29.5641484" lon="103.4348548"><ele>545.68</ele><time>2026-03-30T21:07:50.000Z</time></trkpt>
        <trkpt lat="29.5641941" lon="103.4347404"><ele>548.94</ele><time>2026-03-30T21:09:04.000Z</time></trkpt>
        <trkpt lat="29.5642867" lon="103.4347492"><ele>553.62</ele><time>2026-03-30T21:09:12.000Z</time></trkpt>
        <trkpt lat="29.5643424" lon="103.4347547"><ele>558.09</ele><time>2026-03-30T21:09:20.000Z</time></trkpt>
        <trkpt lat="29.5644199" lon="103.434702"><ele>559.15</ele><time>2026-03-30T21:09:32.000Z</time></trkpt>
        <trkpt lat="29.5645032" lon="103.43464"><ele>557.47</ele><time>2026-03-30T21:09:40.000Z</time></trkpt>
        <trkpt lat="29.5645875" lon="103.4345656"><ele>555.55</ele><time>2026-03-30T21:09:50.000Z</time></trkpt>
        <trkpt lat="29.5646665" lon="103.4344974"><ele>555.78</ele><time>2026-03-30T21:10:02.000Z</time></trkpt>
        <trkpt lat="29.5647127" lon="103.4344007"><ele>556.29</ele><time>2026-03-30T21:10:12.000Z</time></trkpt>
        <trkpt lat="29.5647667" lon="103.434302"><ele>554.11</ele><time>2026-03-30T21:10:20.000Z</time></trkpt>
        <trkpt lat="29.5648029" lon="103.4341921"><ele>551.91</ele><time>2026-03-30T21:10:28.000Z</time></trkpt>
        <trkpt lat="29.5648232" lon="103.4340732"><ele>548.58</ele><time>2026-03-30T21:10:34.000Z</time></trkpt>
        <trkpt lat="29.5648516" lon="103.4339537"><ele>546.06</ele><time>2026-03-30T21:10:42.000Z</time></trkpt>
        <trkpt lat="29.5648809" lon="103.4338445"><ele>544.5</ele><time>2026-03-30T21:10:52.000Z</time></trkpt>
        <trkpt lat="29.5649082" lon="103.4337384"><ele>543.97</ele><time>2026-03-30T21:11:00.000Z</time></trkpt>
        <trkpt lat="29.5649335" lon="103.4336295"><ele>543.25</ele><time>2026-03-30T21:11:10.000Z</time></trkpt>
        <trkpt lat="29.5649605" lon="103.4335219"><ele>543.04</ele><time>2026-03-30T21:11:20.000Z</time></trkpt>
        <trkpt lat="29.5649462" lon="103.4334037"><ele>543.36</ele><time>2026-03-30T21:11:32.000Z</time></trkpt>
        <trkpt lat="29.5649811" lon="103.4333048"><ele>543.64</ele><time>2026-03-30T21:11:40.000Z</time></trkpt>
        <trkpt lat="29.565026" lon="103.4332088"><ele>543.95</ele><time>2026-03-30T21:11:46.000Z</time></trkpt>
        <trkpt lat="29.5650931" lon="103.4331111"><ele>545.54</ele><time>2026-03-30T21:11:56.000Z</time></trkpt>
        <trkpt lat="29.565187" lon="103.4330538"><ele>546.66</ele><time>2026-03-30T21:12:04.000Z</time></trkpt>
        <trkpt lat="29.5652541" lon="103.4330475"><ele>547.44</ele><time>2026-03-30T21:12:12.000Z</time></trkpt>
        <trkpt lat="29.5652879" lon="103.4329785"><ele>546.62</ele><time>2026-03-30T21:12:26.000Z</time></trkpt>
        <trkpt lat="29.5652358" lon="103.4328889"><ele>547.24</ele><time>2026-03-30T21:12:36.000Z</time></trkpt>
        <trkpt lat="29.5651902" lon="103.432783"><ele>547.36</ele><time>2026-03-30T21:12:48.000Z</time></trkpt>
        <trkpt lat="29.5651828" lon="103.4326528"><ele>546.16</ele><time>2026-03-30T21:13:00.000Z</time></trkpt>
        <trkpt lat="29.5651862" lon="103.4325283"><ele>545.63</ele><time>2026-03-30T21:13:06.000Z</time></trkpt>
        <trkpt lat="29.5651986" lon="103.432405"><ele>545.86</ele><time>2026-03-30T21:13:16.000Z</time></trkpt>
        <trkpt lat="29.5652724" lon="103.4323558"><ele>548.42</ele><time>2026-03-30T21:13:24.000Z</time></trkpt>
        <trkpt lat="29.5653665" lon="103.4323564"><ele>549.99</ele><time>2026-03-30T21:13:30.000Z</time></trkpt>
        <trkpt lat="29.5654614" lon="103.4323357"><ele>552.87</ele><time>2026-03-30T21:13:50.000Z</time></trkpt>
        <trkpt lat="29.5654668" lon="103.4322489"><ele>557.34</ele><time>2026-03-30T21:14:00.000Z</time></trkpt>
        <trkpt lat="29.5654311" lon="103.4321447"><ele>559.98</ele><time>2026-03-30T21:14:10.000Z</time></trkpt>
        <trkpt lat="29.5653658" lon="103.4320511"><ele>561.74</ele><time>2026-03-30T21:14:20.000Z</time></trkpt>
        <trkpt lat="29.5653247" lon="103.4319416"><ele>562.55</ele><time>2026-03-30T21:14:30.000Z</time></trkpt>
        <trkpt lat="29.5653378" lon="103.4318248"><ele>563.05</ele><time>2026-03-30T21:14:38.000Z</time></trkpt>
        <trkpt lat="29.5653653" lon="103.4317022"><ele>561.13</ele><time>2026-03-30T21:14:46.000Z</time></trkpt>
        <trkpt lat="29.5653958" lon="103.4315781"><ele>560.94</ele><time>2026-03-30T21:14:56.000Z</time></trkpt>
        <trkpt lat="29.5654346" lon="103.4314697"><ele>561.87</ele><time>2026-03-30T21:15:06.000Z</time></trkpt>
        <trkpt lat="29.5654496" lon="103.431363"><ele>562.64</ele><time>2026-03-30T21:15:18.000Z</time></trkpt>
        <trkpt lat="29.5654646" lon="103.4312602"><ele>564.65</ele><time>2026-03-30T21:15:26.000Z</time></trkpt>
        <trkpt lat="29.5655125" lon="103.4311774"><ele>565.44</ele><time>2026-03-30T21:15:34.000Z</time></trkpt>
        <trkpt lat="29.56556" lon="103.4310841"><ele>566.02</ele><time>2026-03-30T21:15:42.000Z</time></trkpt>
        <trkpt lat="29.5655668" lon="103.4309721"><ele>566.21</ele><time>2026-03-30T21:15:52.000Z</time></trkpt>
        <trkpt lat="29.5654982" lon="103.4309115"><ele>568.71</ele><time>2026-03-30T21:15:58.000Z</time></trkpt>
        <trkpt lat="29.5654279" lon="103.4308384"><ele>571.83</ele><time>2026-03-30T21:16:10.000Z</time></trkpt>
        <trkpt lat="29.5653579" lon="103.4307482"><ele>574.91</ele><time>2026-03-30T21:16:20.000Z</time></trkpt>
        <trkpt lat="29.5653379" lon="103.4306285"><ele>577.28</ele><time>2026-03-30T21:16:30.000Z</time></trkpt>
        <trkpt lat="29.5653199" lon="103.4305065"><ele>578.3</ele><time>2026-03-30T21:16:38.000Z</time></trkpt>
        <trkpt lat="29.5652691" lon="103.4303963"><ele>579.52</ele><time>2026-03-30T21:16:46.000Z</time></trkpt>
        <trkpt lat="29.5652826" lon="103.4302812"><ele>581.2</ele><time>2026-03-30T21:16:56.000Z</time></trkpt>
        <trkpt lat="29.5652825" lon="103.4301683"><ele>580.83</ele><time>2026-03-30T21:17:04.000Z</time></trkpt>
        <trkpt lat="29.5652771" lon="103.430049"><ele>581.58</ele><time>2026-03-30T21:17:14.000Z</time></trkpt>
        <trkpt lat="29.5652346" lon="103.4299357"><ele>579.29</ele><time>2026-03-30T21:17:22.000Z</time></trkpt>
        <trkpt lat="29.5651888" lon="103.429835"><ele>579.51</ele><time>2026-03-30T21:17:32.000Z</time></trkpt>
        <trkpt lat="29.5651477" lon="103.4297363"><ele>579.66</ele><time>2026-03-30T21:17:44.000Z</time></trkpt>
        <trkpt lat="29.5651063" lon="103.4296218"><ele>579.5</ele><time>2026-03-30T21:17:54.000Z</time></trkpt>
        <trkpt lat="29.5650531" lon="103.42953"><ele>581.36</ele><time>2026-03-30T21:18:02.000Z</time></trkpt>
        <trkpt lat="29.564985" lon="103.4294285"><ele>583.31</ele><time>2026-03-30T21:18:10.000Z</time></trkpt>
        <trkpt lat="29.5649011" lon="103.4293419"><ele>584.31</ele><time>2026-03-30T21:18:18.000Z</time></trkpt>
        <trkpt lat="29.5648172" lon="103.4292465"><ele>585.66</ele><time>2026-03-30T21:18:26.000Z</time></trkpt>
        <trkpt lat="29.5648572" lon="103.4291508"><ele>587.03</ele><time>2026-03-30T21:18:32.000Z</time></trkpt>
        <trkpt lat="29.5648632" lon="103.4290357"><ele>587.63</ele><time>2026-03-30T21:18:42.000Z</time></trkpt>
        <trkpt lat="29.5648474" lon="103.4289189"><ele>589.33</ele><time>2026-03-30T21:18:52.000Z</time></trkpt>
        <trkpt lat="29.564821" lon="103.4288039"><ele>590.05</ele><time>2026-03-30T21:19:00.000Z</time></trkpt>
        <trkpt lat="29.5647997" lon="103.4286884"><ele>592.19</ele><time>2026-03-30T21:19:10.000Z</time></trkpt>
        <trkpt lat="29.5648175" lon="103.4285714"><ele>593.14</ele><time>2026-03-30T21:19:18.000Z</time></trkpt>
        <trkpt lat="29.564822" lon="103.4284571"><ele>593.52</ele><time>2026-03-30T21:19:26.000Z</time></trkpt>
        <trkpt lat="29.5648866" lon="103.428387"><ele>594.07</ele><time>2026-03-30T21:19:34.000Z</time></trkpt>
        <trkpt lat="29.5649703" lon="103.4283311"><ele>594.28</ele><time>2026-03-30T21:19:42.000Z</time></trkpt>
        <trkpt lat="29.5650646" lon="103.4282996"><ele>594.19</ele><time>2026-03-30T21:19:50.000Z</time></trkpt>
        <trkpt lat="29.5651641" lon="103.4282503"><ele>592.86</ele><time>2026-03-30T21:20:00.000Z</time></trkpt>
        <trkpt lat="29.5652534" lon="103.4281911"><ele>592.56</ele><time>2026-03-30T21:20:10.000Z</time></trkpt>
        <trkpt lat="29.5653292" lon="103.4281248"><ele>593.13</ele><time>2026-03-30T21:20:18.000Z</time></trkpt>
        <trkpt lat="29.565384" lon="103.4280402"><ele>594.88</ele><time>2026-03-30T21:20:26.000Z</time></trkpt>
        <trkpt lat="29.5654384" lon="103.4279537"><ele>596.04</ele><time>2026-03-30T21:20:34.000Z</time></trkpt>
        <trkpt lat="29.56547" lon="103.427844"><ele>596.81</ele><time>2026-03-30T21:20:44.000Z</time></trkpt>
        <trkpt lat="29.5654569" lon="103.427735"><ele>598.35</ele><time>2026-03-30T21:20:52.000Z</time></trkpt>
        <trkpt lat="29.5654257" lon="103.4276231"><ele>597.35</ele><time>2026-03-30T21:21:00.000Z</time></trkpt>
        <trkpt lat="29.5653899" lon="103.4275161"><ele>596.26</ele><time>2026-03-30T21:21:08.000Z</time></trkpt>
        <trkpt lat="29.5653568" lon="103.4274125"><ele>595.53</ele><time>2026-03-30T21:21:16.000Z</time></trkpt>
        <trkpt lat="29.5653224" lon="103.4272962"><ele>595</ele><time>2026-03-30T21:21:26.000Z</time></trkpt>
        <trkpt lat="29.565252" lon="103.4272091"><ele>594.29</ele><time>2026-03-30T21:21:36.000Z</time></trkpt>
        <trkpt lat="29.5652128" lon="103.4270986"><ele>592.64</ele><time>2026-03-30T21:21:46.000Z</time></trkpt>
        <trkpt lat="29.5651383" lon="103.427025"><ele>591.76</ele><time>2026-03-30T21:21:56.000Z</time></trkpt>
        <trkpt lat="29.5650518" lon="103.4269488"><ele>592.24</ele><time>2026-03-30T21:22:08.000Z</time></trkpt>
        <trkpt lat="29.5649583" lon="103.4269311"><ele>597.28</ele><time>2026-03-30T21:22:16.000Z</time></trkpt>
        <trkpt lat="29.5649123" lon="103.4268417"><ele>601.26</ele><time>2026-03-30T21:22:24.000Z</time></trkpt>
        <trkpt lat="29.5649195" lon="103.4267337"><ele>604.27</ele><time>2026-03-30T21:22:34.000Z</time></trkpt>
        <trkpt lat="29.5649325" lon="103.4266963"><ele>605.34</ele><time>2026-03-30T21:22:36.000Z</time></trkpt>
        <trkpt lat="29.565028" lon="103.4266496"><ele>605.85</ele><time>2026-03-30T21:22:44.000Z</time></trkpt>
        <trkpt lat="29.5651301" lon="103.4266746"><ele>607.04</ele><time>2026-03-30T21:22:54.000Z</time></trkpt>
        <trkpt lat="29.5651944" lon="103.4266076"><ele>608.93</ele><time>2026-03-30T21:23:02.000Z</time></trkpt>
        <trkpt lat="29.5652194" lon="103.4266768"><ele>609.4</ele><time>2026-03-30T21:23:50.000Z</time></trkpt>
        <trkpt lat="29.565155" lon="103.4267238"><ele>608.55</ele><time>2026-03-30T21:24:06.000Z</time></trkpt>
        <trkpt lat="29.565081" lon="103.4266745"><ele>612.14</ele><time>2026-03-30T21:24:22.000Z</time></trkpt>
        <trkpt lat="29.5650125" lon="103.4267199"><ele>614.49</ele><time>2026-03-30T21:24:30.000Z</time></trkpt>
        <trkpt lat="29.564998" lon="103.4266547"><ele>614.78</ele><time>2026-03-30T21:24:46.000Z</time></trkpt>
        <trkpt lat="29.5650187" lon="103.4265514"><ele>614.67</ele><time>2026-03-30T21:24:58.000Z</time></trkpt>
        <trkpt lat="29.5650414" lon="103.4264387"><ele>615.34</ele><time>2026-03-30T21:25:12.000Z</time></trkpt>
        <trkpt lat="29.5650755" lon="103.4263294"><ele>616.67</ele><time>2026-03-30T21:25:32.000Z</time></trkpt>
        <trkpt lat="29.5651078" lon="103.4262202"><ele>619.06</ele><time>2026-03-30T21:25:52.000Z</time></trkpt>
        <trkpt lat="29.5651376" lon="103.4261149"><ele>622.55</ele><time>2026-03-30T21:26:06.000Z</time></trkpt>
        <trkpt lat="29.5651743" lon="103.4260134"><ele>624.86</ele><time>2026-03-30T21:26:38.000Z</time></trkpt>
        <trkpt lat="29.5651989" lon="103.4259082"><ele>626.91</ele><time>2026-03-30T21:27:04.000Z</time></trkpt>
        <trkpt lat="29.5651806" lon="103.4258026"><ele>629.46</ele><time>2026-03-30T21:27:18.000Z</time></trkpt>
        <trkpt lat="29.5651733" lon="103.4256924"><ele>631.81</ele><time>2026-03-30T21:27:36.000Z</time></trkpt>
        <trkpt lat="29.565116" lon="103.4255947"><ele>635.92</ele><time>2026-03-30T21:28:58.000Z</time></trkpt>
        <trkpt lat="29.5650272" lon="103.4255306"><ele>642.77</ele><time>2026-03-30T21:29:10.000Z</time></trkpt>
        <trkpt lat="29.5649681" lon="103.4254498"><ele>647.55</ele><time>2026-03-30T21:29:18.000Z</time></trkpt>
        <trkpt lat="29.5649493" lon="103.4253404"><ele>652.09</ele><time>2026-03-30T21:29:26.000Z</time></trkpt>
        <trkpt lat="29.5648765" lon="103.4252699"><ele>657.44</ele><time>2026-03-30T21:29:34.000Z</time></trkpt>
        <trkpt lat="29.5648145" lon="103.425191"><ele>660.98</ele><time>2026-03-30T21:29:44.000Z</time></trkpt>
        <trkpt lat="29.5647748" lon="103.4250978"><ele>663.85</ele><time>2026-03-30T21:29:56.000Z</time></trkpt>
        <trkpt lat="29.564758" lon="103.4249877"><ele>663.6</ele><time>2026-03-30T21:30:10.000Z</time></trkpt>
        <trkpt lat="29.5647109" lon="103.4248991"><ele>663.49</ele><time>2026-03-30T21:30:24.000Z</time></trkpt>
        <trkpt lat="29.5646795" lon="103.4248024"><ele>662.22</ele><time>2026-03-30T21:30:34.000Z</time></trkpt>
        <trkpt lat="29.564695" lon="103.4247008"><ele>660.57</ele><time>2026-03-30T21:30:48.000Z</time></trkpt>
        <trkpt lat="29.564684" lon="103.4245891"><ele>659.26</ele><time>2026-03-30T21:30:58.000Z</time></trkpt>
        <trkpt lat="29.5646167" lon="103.424508"><ele>658.61</ele><time>2026-03-30T21:31:26.000Z</time></trkpt>
        <trkpt lat="29.5645716" lon="103.4243989"><ele>658.7</ele><time>2026-03-30T21:31:34.000Z</time></trkpt>
        <trkpt lat="29.564606" lon="103.4242965"><ele>658.74</ele><time>2026-03-30T21:31:44.000Z</time></trkpt>
        <trkpt lat="29.5646077" lon="103.4241933"><ele>658.54</ele><time>2026-03-30T21:32:08.000Z</time></trkpt>
        <trkpt lat="29.5645978" lon="103.4240886"><ele>659.84</ele><time>2026-03-30T21:32:26.000Z</time></trkpt>
        <trkpt lat="29.5645312" lon="103.424024"><ele>661.53</ele><time>2026-03-30T21:32:56.000Z</time></trkpt>
        <trkpt lat="29.5644746" lon="103.4239286"><ele>663.74</ele><time>2026-03-30T21:33:24.000Z</time></trkpt>
        <trkpt lat="29.5644093" lon="103.4238429"><ele>669.35</ele><time>2026-03-30T21:33:42.000Z</time></trkpt>
        <trkpt lat="29.5643482" lon="103.423741"><ele>673.67</ele><time>2026-03-30T21:34:14.000Z</time></trkpt>
        <trkpt lat="29.5643041" lon="103.4236377"><ele>676.05</ele><time>2026-03-30T21:34:28.000Z</time></trkpt>
        <trkpt lat="29.5643451" lon="103.4235538"><ele>681.46</ele><time>2026-03-30T21:34:38.000Z</time></trkpt>
        <trkpt lat="29.5643794" lon="103.4234445"><ele>685.74</ele><time>2026-03-30T21:34:50.000Z</time></trkpt>
        <trkpt lat="29.5644161" lon="103.4233378"><ele>690.13</ele><time>2026-03-30T21:35:04.000Z</time></trkpt>
        <trkpt lat="29.5644533" lon="103.423231"><ele>695.91</ele><time>2026-03-30T21:35:18.000Z</time></trkpt>
        <trkpt lat="29.5644515" lon="103.4231213"><ele>701.58</ele><time>2026-03-30T21:35:38.000Z</time></trkpt>
        <trkpt lat="29.5644567" lon="103.4230108"><ele>706.57</ele><time>2026-03-30T21:35:58.000Z</time></trkpt>
        <trkpt lat="29.5644487" lon="103.4229029"><ele>711.06</ele><time>2026-03-30T21:36:36.000Z</time></trkpt>
        <trkpt lat="29.5644451" lon="103.4227867"><ele>711.35</ele><time>2026-03-30T21:36:56.000Z</time></trkpt>
        <trkpt lat="29.5644264" lon="103.4227582"><ele>711.53</ele><time>2026-03-30T21:37:12.000Z</time></trkpt>
        <trkpt lat="29.5643901" lon="103.4226842"><ele>711.14</ele><time>2026-03-30T21:37:32.000Z</time></trkpt>
        <trkpt lat="29.5644003" lon="103.4225771"><ele>710.3</ele><time>2026-03-30T21:37:42.000Z</time></trkpt>
        <trkpt lat="29.5644023" lon="103.4224667"><ele>709.46</ele><time>2026-03-30T21:37:52.000Z</time></trkpt>
        <trkpt lat="29.5644067" lon="103.4223548"><ele>708.9</ele><time>2026-03-30T21:38:08.000Z</time></trkpt>
        <trkpt lat="29.5643906" lon="103.4222506"><ele>712.53</ele><time>2026-03-30T21:38:34.000Z</time></trkpt>
        <trkpt lat="29.5643895" lon="103.4221418"><ele>715.71</ele><time>2026-03-30T21:38:56.000Z</time></trkpt>
        <trkpt lat="29.564378" lon="103.4220356"><ele>718.59</ele><time>2026-03-30T21:40:00.000Z</time></trkpt>
        <trkpt lat="29.56422" lon="103.4215946"><ele>724.9</ele><time>2026-03-30T21:42:17.000Z</time></trkpt>
        <trkpt lat="29.56422" lon="103.4215946"><ele>724.9</ele><time>2026-03-30T21:42:17.000Z</time></trkpt>
        <trkpt lat="29.5643089" lon="103.4213896"><ele>755.41</ele><time>2026-03-30T21:43:16.000Z</time></trkpt>
        <trkpt lat="29.5643089" lon="103.4213896"><ele>755.41</ele><time>2026-03-30T21:43:16.000Z</time></trkpt>
        <trkpt lat="29.5643985" lon="103.4213322"><ele>755.41</ele><time>2026-03-30T21:43:24.000Z</time></trkpt>
        <trkpt lat="29.5644774" lon="103.421266"><ele>754.48</ele><time>2026-03-30T21:43:32.000Z</time></trkpt>
        <trkpt lat="29.5645673" lon="103.4212229"><ele>751.75</ele><time>2026-03-30T21:43:46.000Z</time></trkpt>
        <trkpt lat="29.5646046" lon="103.4211256"><ele>751.18</ele><time>2026-03-30T21:43:54.000Z</time></trkpt>
        <trkpt lat="29.5646627" lon="103.4210321"><ele>751.76</ele><time>2026-03-30T21:44:36.000Z</time></trkpt>
        <trkpt lat="29.5647511" lon="103.4210223"><ele>756.4</ele><time>2026-03-30T21:44:44.000Z</time></trkpt>
        <trkpt lat="29.5647637" lon="103.4211111"><ele>757.73</ele><time>2026-03-30T21:44:56.000Z</time></trkpt>
        <trkpt lat="29.5648179" lon="103.4212012"><ele>758.18</ele><time>2026-03-30T21:45:18.000Z</time></trkpt>
        <trkpt lat="29.5648841" lon="103.4212833"><ele>759.68</ele><time>2026-03-30T21:45:36.000Z</time></trkpt>
        <trkpt lat="29.5649434" lon="103.4213749"><ele>764.25</ele><time>2026-03-30T21:45:52.000Z</time></trkpt>
        <trkpt lat="29.5650202" lon="103.4213462"><ele>768.11</ele><time>2026-03-30T21:46:18.000Z</time></trkpt>
        <trkpt lat="29.5650708" lon="103.4213531"><ele>771.02</ele><time>2026-03-30T21:46:24.000Z</time></trkpt>
        <trkpt lat="29.5651555" lon="103.4213358"><ele>773</ele><time>2026-03-30T21:47:04.000Z</time></trkpt>
        <trkpt lat="29.5652406" lon="103.4212919"><ele>773.28</ele><time>2026-03-30T21:47:12.000Z</time></trkpt>
        <trkpt lat="29.565319" lon="103.4212217"><ele>773.81</ele><time>2026-03-30T21:47:34.000Z</time></trkpt>
        <trkpt lat="29.5654023" lon="103.4211659"><ele>778.62</ele><time>2026-03-30T21:47:54.000Z</time></trkpt>
        <trkpt lat="29.5655039" lon="103.4211282"><ele>782.56</ele><time>2026-03-30T21:48:14.000Z</time></trkpt>
        <trkpt lat="29.5656123" lon="103.4210985"><ele>783.82</ele><time>2026-03-30T21:48:22.000Z</time></trkpt>
        <trkpt lat="29.5657039" lon="103.4210483"><ele>786.58</ele><time>2026-03-30T21:48:32.000Z</time></trkpt>
        <trkpt lat="29.5657976" lon="103.4210454"><ele>789.75</ele><time>2026-03-30T21:48:42.000Z</time></trkpt>
        <trkpt lat="29.5659034" lon="103.4210665"><ele>795.12</ele><time>2026-03-30T21:48:52.000Z</time></trkpt>
        <trkpt lat="29.5660071" lon="103.421088"><ele>798.83</ele><time>2026-03-30T21:49:02.000Z</time></trkpt>
        <trkpt lat="29.5661135" lon="103.4210883"><ele>798.91</ele><time>2026-03-30T21:49:16.000Z</time></trkpt>
        <trkpt lat="29.5662099" lon="103.4210875"><ele>799.48</ele><time>2026-03-30T21:49:28.000Z</time></trkpt>
        <trkpt lat="29.566254" lon="103.4210371"><ele>799.64</ele><time>2026-03-30T21:49:40.000Z</time></trkpt>
        <trkpt lat="29.56629" lon="103.4209345"><ele>799.19</ele><time>2026-03-30T21:49:54.000Z</time></trkpt>
        <trkpt lat="29.5662794" lon="103.4208161"><ele>798.99</ele><time>2026-03-30T21:50:02.000Z</time></trkpt>
        <trkpt lat="29.5663103" lon="103.4207063"><ele>798.5</ele><time>2026-03-30T21:50:14.000Z</time></trkpt>
        <trkpt lat="29.5663282" lon="103.4205848"><ele>798.97</ele><time>2026-03-30T21:50:24.000Z</time></trkpt>
        <trkpt lat="29.5663458" lon="103.4204601"><ele>798.76</ele><time>2026-03-30T21:50:32.000Z</time></trkpt>
        <trkpt lat="29.5663922" lon="103.4203665"><ele>799.64</ele><time>2026-03-30T21:50:40.000Z</time></trkpt>
        <trkpt lat="29.5664668" lon="103.4202818"><ele>799.78</ele><time>2026-03-30T21:50:50.000Z</time></trkpt>
        <trkpt lat="29.56657" lon="103.4202117"><ele>799.14</ele><time>2026-03-30T21:50:58.000Z</time></trkpt>
        <trkpt lat="29.5666199" lon="103.4201168"><ele>799.14</ele><time>2026-03-30T21:51:04.000Z</time></trkpt>
        <trkpt lat="29.5666641" lon="103.4200214"><ele>799.41</ele><time>2026-03-30T21:51:16.000Z</time></trkpt>
        <trkpt lat="29.5666869" lon="103.4199129"><ele>798.39</ele><time>2026-03-30T21:51:24.000Z</time></trkpt>
        <trkpt lat="29.5667118" lon="103.4198025"><ele>799.88</ele><time>2026-03-30T21:51:38.000Z</time></trkpt>
        <trkpt lat="29.5667895" lon="103.4198033"><ele>800.71</ele><time>2026-03-30T21:51:54.000Z</time></trkpt>
        <trkpt lat="29.5668726" lon="103.4198758"><ele>803.36</ele><time>2026-03-30T21:52:06.000Z</time></trkpt>
        <trkpt lat="29.5669712" lon="103.4199447"><ele>808.07</ele><time>2026-03-30T21:52:16.000Z</time></trkpt>
        <trkpt lat="29.5670346" lon="103.4200447"><ele>810.13</ele><time>2026-03-30T21:52:46.000Z</time></trkpt>
        <trkpt lat="29.5670519" lon="103.4201675"><ele>812.17</ele><time>2026-03-30T21:52:56.000Z</time></trkpt>
        <trkpt lat="29.5670434" lon="103.4202138"><ele>814.13</ele><time>2026-03-30T21:53:04.000Z</time></trkpt>
        <trkpt lat="29.5670655" lon="103.4202911"><ele>815.04</ele><time>2026-03-30T21:53:32.000Z</time></trkpt>
        <trkpt lat="29.5671099" lon="103.4203839"><ele>816.95</ele><time>2026-03-30T21:53:46.000Z</time></trkpt>
        <trkpt lat="29.5671849" lon="103.4204597"><ele>821.1</ele><time>2026-03-30T21:54:02.000Z</time></trkpt>
        <trkpt lat="29.5672245" lon="103.4204617"><ele>824.02</ele><time>2026-03-30T21:54:08.000Z</time></trkpt>
        <trkpt lat="29.5673011" lon="103.4204681"><ele>826.86</ele><time>2026-03-30T21:54:48.000Z</time></trkpt>
        <trkpt lat="29.5673796" lon="103.4204067"><ele>827.25</ele><time>2026-03-30T21:55:00.000Z</time></trkpt>
        <trkpt lat="29.5674721" lon="103.4203904"><ele>828.53</ele><time>2026-03-30T21:55:48.000Z</time></trkpt>
        <trkpt lat="29.567573" lon="103.4203753"><ele>831.21</ele><time>2026-03-30T21:56:04.000Z</time></trkpt>
        <trkpt lat="29.567645" lon="103.4202965"><ele>832.62</ele><time>2026-03-30T21:56:18.000Z</time></trkpt>
        <trkpt lat="29.5677286" lon="103.4202656"><ele>835.79</ele><time>2026-03-30T21:56:30.000Z</time></trkpt>
        <trkpt lat="29.5678134" lon="103.4202128"><ele>839.83</ele><time>2026-03-30T21:56:52.000Z</time></trkpt>
        <trkpt lat="29.5679" lon="103.42015"><ele>844.44</ele><time>2026-03-30T21:57:12.000Z</time></trkpt>
        <trkpt lat="29.5679871" lon="103.4201033"><ele>850.6</ele><time>2026-03-30T21:57:24.000Z</time></trkpt>
        <trkpt lat="29.5680787" lon="103.42011"><ele>854.45</ele><time>2026-03-30T21:57:42.000Z</time></trkpt>
        <trkpt lat="29.5681689" lon="103.4200987"><ele>857.24</ele><time>2026-03-30T21:58:30.000Z</time></trkpt>
        <trkpt lat="29.5682634" lon="103.4200752"><ele>861.57</ele><time>2026-03-30T21:58:48.000Z</time></trkpt>
        <trkpt lat="29.5683591" lon="103.4200789"><ele>864.79</ele><time>2026-03-30T21:59:04.000Z</time></trkpt>
        <trkpt lat="29.5684467" lon="103.4200537"><ele>869.07</ele><time>2026-03-30T21:59:16.000Z</time></trkpt>
        <trkpt lat="29.5685412" lon="103.4200321"><ele>872.18</ele><time>2026-03-30T21:59:42.000Z</time></trkpt>
        <trkpt lat="29.568637" lon="103.4200287"><ele>876.66</ele><time>2026-03-30T22:00:06.000Z</time></trkpt>
        <trkpt lat="29.5687392" lon="103.4200144"><ele>879.5</ele><time>2026-03-30T22:00:50.000Z</time></trkpt>
        <trkpt lat="29.5688279" lon="103.4199678"><ele>884.57</ele><time>2026-03-30T22:01:16.000Z</time></trkpt>
        <trkpt lat="29.568917" lon="103.4199117"><ele>888.6</ele><time>2026-03-30T22:01:28.000Z</time></trkpt>
        <trkpt lat="29.5690098" lon="103.4198614"><ele>891.78</ele><time>2026-03-30T22:01:38.000Z</time></trkpt>
        <trkpt lat="29.5690983" lon="103.4198272"><ele>893.4</ele><time>2026-03-30T22:01:46.000Z</time></trkpt>
        <trkpt lat="29.5691974" lon="103.4197998"><ele>894.9</ele><time>2026-03-30T22:01:56.000Z</time></trkpt>
        <trkpt lat="29.5692826" lon="103.4197659"><ele>893.96</ele><time>2026-03-30T22:02:06.000Z</time></trkpt>
        <trkpt lat="29.5693686" lon="103.4197367"><ele>892.03</ele><time>2026-03-30T22:02:28.000Z</time></trkpt>
        <trkpt lat="29.5694489" lon="103.4196906"><ele>890.46</ele><time>2026-03-30T22:02:40.000Z</time></trkpt>
        <trkpt lat="29.5694716" lon="103.4196801"><ele>890.03</ele><time>2026-03-30T22:02:42.000Z</time></trkpt>
        <trkpt lat="29.5695323" lon="103.4196315"><ele>890.07</ele><time>2026-03-30T22:03:00.000Z</time></trkpt>
        <trkpt lat="29.5695913" lon="103.4195485"><ele>890.36</ele><time>2026-03-30T22:03:08.000Z</time></trkpt>
        <trkpt lat="29.5696425" lon="103.4194405"><ele>891.08</ele><time>2026-03-30T22:03:32.000Z</time></trkpt>
        <trkpt lat="29.5697121" lon="103.4193691"><ele>889.04</ele><time>2026-03-30T22:03:42.000Z</time></trkpt>
        <trkpt lat="29.569779" lon="103.4192614"><ele>887.51</ele><time>2026-03-30T22:04:10.000Z</time></trkpt>
        <trkpt lat="29.5698156" lon="103.419146"><ele>884.93</ele><time>2026-03-30T22:04:18.000Z</time></trkpt>
        <trkpt lat="29.5698047" lon="103.4190278"><ele>883.08</ele><time>2026-03-30T22:04:28.000Z</time></trkpt>
        <trkpt lat="29.5698028" lon="103.4189073"><ele>884.95</ele><time>2026-03-30T22:04:38.000Z</time></trkpt>
        <trkpt lat="29.5697823" lon="103.4188006"><ele>886.05</ele><time>2026-03-30T22:04:48.000Z</time></trkpt>
        <trkpt lat="29.5697774" lon="103.418686"><ele>886.08</ele><time>2026-03-30T22:04:58.000Z</time></trkpt>
        <trkpt lat="29.5698012" lon="103.4185795"><ele>885.24</ele><time>2026-03-30T22:05:08.000Z</time></trkpt>
        <trkpt lat="29.5698063" lon="103.4185165"><ele>883.23</ele><time>2026-03-30T22:05:14.000Z</time></trkpt>
        <trkpt lat="29.5698137" lon="103.4184269"><ele>882.29</ele><time>2026-03-30T22:05:30.000Z</time></trkpt>
        <trkpt lat="29.5698223" lon="103.4183675"><ele>882.12</ele><time>2026-03-30T22:05:38.000Z</time></trkpt>
        <trkpt lat="29.5698117" lon="103.4182633"><ele>881.7</ele><time>2026-03-30T22:06:04.000Z</time></trkpt>
        <trkpt lat="29.5698402" lon="103.4181553"><ele>879.59</ele><time>2026-03-30T22:06:10.000Z</time></trkpt>
        <trkpt lat="29.5698443" lon="103.4180474"><ele>879.15</ele><time>2026-03-30T22:06:16.000Z</time></trkpt>
        <trkpt lat="29.5698992" lon="103.4179573"><ele>879.09</ele><time>2026-03-30T22:06:26.000Z</time></trkpt>
        <trkpt lat="29.5699712" lon="103.4178719"><ele>878.53</ele><time>2026-03-30T22:06:36.000Z</time></trkpt>
        <trkpt lat="29.5700293" lon="103.4177822"><ele>878.48</ele><time>2026-03-30T22:06:44.000Z</time></trkpt>
        <trkpt lat="29.5700198" lon="103.4176814"><ele>877.71</ele><time>2026-03-30T22:06:56.000Z</time></trkpt>
        <trkpt lat="29.5700161" lon="103.4175574"><ele>875.88</ele><time>2026-03-30T22:07:08.000Z</time></trkpt>
        <trkpt lat="29.5700086" lon="103.4174336"><ele>874.72</ele><time>2026-03-30T22:07:16.000Z</time></trkpt>
        <trkpt lat="29.5700464" lon="103.4173349"><ele>874.45</ele><time>2026-03-30T22:07:26.000Z</time></trkpt>
        <trkpt lat="29.5701081" lon="103.4172379"><ele>873.73</ele><time>2026-03-30T22:07:36.000Z</time></trkpt>
        <trkpt lat="29.5701404" lon="103.4171286"><ele>872.72</ele><time>2026-03-30T22:07:44.000Z</time></trkpt>
        <trkpt lat="29.5701882" lon="103.4170194"><ele>871.59</ele><time>2026-03-30T22:07:52.000Z</time></trkpt>
        <trkpt lat="29.5702696" lon="103.417006"><ele>872.36</ele><time>2026-03-30T22:08:22.000Z</time></trkpt>
        <trkpt lat="29.5703777" lon="103.4170066"><ele>869</ele><time>2026-03-30T22:08:32.000Z</time></trkpt>
        <trkpt lat="29.5704227" lon="103.4169229"><ele>868.98</ele><time>2026-03-30T22:08:40.000Z</time></trkpt>
        <trkpt lat="29.5704158" lon="103.4168195"><ele>867.97</ele><time>2026-03-30T22:08:52.000Z</time></trkpt>
        <trkpt lat="29.5704227" lon="103.4167108"><ele>866.77</ele><time>2026-03-30T22:09:02.000Z</time></trkpt>
        <trkpt lat="29.5704094" lon="103.4166039"><ele>865.6</ele><time>2026-03-30T22:09:10.000Z</time></trkpt>
        <trkpt lat="29.5703956" lon="103.416484"><ele>863.75</ele><time>2026-03-30T22:09:20.000Z</time></trkpt>
        <trkpt lat="29.5703992" lon="103.4163729"><ele>863.3</ele><time>2026-03-30T22:09:32.000Z</time></trkpt>
        <trkpt lat="29.5703849" lon="103.4162545"><ele>861.86</ele><time>2026-03-30T22:09:42.000Z</time></trkpt>
        <trkpt lat="29.5704247" lon="103.4161557"><ele>860.66</ele><time>2026-03-30T22:09:50.000Z</time></trkpt>
        <trkpt lat="29.5705119" lon="103.4161196"><ele>859.97</ele><time>2026-03-30T22:09:56.000Z</time></trkpt>
        <trkpt lat="29.5706083" lon="103.4160614"><ele>859.58</ele><time>2026-03-30T22:10:06.000Z</time></trkpt>
        <trkpt lat="29.570714" lon="103.4160197"><ele>859.9</ele><time>2026-03-30T22:10:18.000Z</time></trkpt>
        <trkpt lat="29.5708189" lon="103.4159894"><ele>861.82</ele><time>2026-03-30T22:10:30.000Z</time></trkpt>
        <trkpt lat="29.5707778" lon="103.4159501"><ele>865.2</ele><time>2026-03-30T22:10:48.000Z</time></trkpt>
        <trkpt lat="29.5706965" lon="103.4158791"><ele>870.92</ele><time>2026-03-30T22:11:00.000Z</time></trkpt>
        <trkpt lat="29.5706012" lon="103.4158096"><ele>873.1</ele><time>2026-03-30T22:11:12.000Z</time></trkpt>
        <trkpt lat="29.5705128" lon="103.4157289"><ele>874.25</ele><time>2026-03-30T22:11:24.000Z</time></trkpt>
        <trkpt lat="29.5704511" lon="103.4156293"><ele>874.52</ele><time>2026-03-30T22:11:34.000Z</time></trkpt>
        <trkpt lat="29.570384" lon="103.4155416"><ele>875.13</ele><time>2026-03-30T22:11:42.000Z</time></trkpt>
        <trkpt lat="29.5702938" lon="103.4155206"><ele>875.8</ele><time>2026-03-30T22:11:50.000Z</time></trkpt>
        <trkpt lat="29.5701975" lon="103.4155115"><ele>875.97</ele><time>2026-03-30T22:12:02.000Z</time></trkpt>
        <trkpt lat="29.5701114" lon="103.4154725"><ele>877.02</ele><time>2026-03-30T22:12:12.000Z</time></trkpt>
        <trkpt lat="29.5700199" lon="103.4154183"><ele>879.63</ele><time>2026-03-30T22:12:24.000Z</time></trkpt>
        <trkpt lat="29.5699525" lon="103.4153375"><ele>881.76</ele><time>2026-03-30T22:12:36.000Z</time></trkpt>
        <trkpt lat="29.5699263" lon="103.4152286"><ele>881.74</ele><time>2026-03-30T22:12:46.000Z</time></trkpt>
        <trkpt lat="29.5699033" lon="103.4150982"><ele>882.59</ele><time>2026-03-30T22:12:54.000Z</time></trkpt>
        <trkpt lat="29.5699156" lon="103.4149679"><ele>882.97</ele><time>2026-03-30T22:13:06.000Z</time></trkpt>
        <trkpt lat="29.5698777" lon="103.4148576"><ele>882.58</ele><time>2026-03-30T22:13:16.000Z</time></trkpt>
        <trkpt lat="29.5697998" lon="103.4147899"><ele>882.92</ele><time>2026-03-30T22:13:26.000Z</time></trkpt>
        <trkpt lat="29.569715" lon="103.4147239"><ele>882.48</ele><time>2026-03-30T22:13:38.000Z</time></trkpt>
        <trkpt lat="29.5696189" lon="103.4146918"><ele>882.34</ele><time>2026-03-30T22:13:48.000Z</time></trkpt>
        <trkpt lat="29.5695124" lon="103.4147181"><ele>882.56</ele><time>2026-03-30T22:13:58.000Z</time></trkpt>
        <trkpt lat="29.569415" lon="103.4147783"><ele>882.62</ele><time>2026-03-30T22:14:24.000Z</time></trkpt>
        <trkpt lat="29.5693159" lon="103.4148244"><ele>881.17</ele><time>2026-03-30T22:14:36.000Z</time></trkpt>
        <trkpt lat="29.569242" lon="103.4147714"><ele>880.44</ele><time>2026-03-30T22:14:58.000Z</time></trkpt>
        <trkpt lat="29.5691895" lon="103.4146754"><ele>879.72</ele><time>2026-03-30T22:15:06.000Z</time></trkpt>
        <trkpt lat="29.5691366" lon="103.4145658"><ele>879.39</ele><time>2026-03-30T22:15:16.000Z</time></trkpt>
        <trkpt lat="29.5691184" lon="103.4144514"><ele>879.05</ele><time>2026-03-30T22:15:24.000Z</time></trkpt>
        <trkpt lat="29.5691521" lon="103.4143286"><ele>878.67</ele><time>2026-03-30T22:15:32.000Z</time></trkpt>
        <trkpt lat="29.5691766" lon="103.4142124"><ele>880.22</ele><time>2026-03-30T22:15:40.000Z</time></trkpt>
        <trkpt lat="29.5691632" lon="103.4140985"><ele>881.75</ele><time>2026-03-30T22:15:50.000Z</time></trkpt>
        <trkpt lat="29.5691675" lon="103.4139928"><ele>882.05</ele><time>2026-03-30T22:15:58.000Z</time></trkpt>
        <trkpt lat="29.5691962" lon="103.4138927"><ele>880.7</ele><time>2026-03-30T22:16:08.000Z</time></trkpt>
        <trkpt lat="29.5691919" lon="103.4137893"><ele>879.79</ele><time>2026-03-30T22:16:18.000Z</time></trkpt>
        <trkpt lat="29.5691434" lon="103.4136982"><ele>877.28</ele><time>2026-03-30T22:16:28.000Z</time></trkpt>
        <trkpt lat="29.5690847" lon="103.4135967"><ele>875.52</ele><time>2026-03-30T22:16:38.000Z</time></trkpt>
        <trkpt lat="29.5690481" lon="103.4134773"><ele>873.7</ele><time>2026-03-30T22:16:48.000Z</time></trkpt>
        <trkpt lat="29.5690244" lon="103.4133648"><ele>870.99</ele><time>2026-03-30T22:16:58.000Z</time></trkpt>
        <trkpt lat="29.5690283" lon="103.4132456"><ele>868.45</ele><time>2026-03-30T22:17:10.000Z</time></trkpt>
        <trkpt lat="29.5690157" lon="103.4131397"><ele>867.03</ele><time>2026-03-30T22:17:20.000Z</time></trkpt>
        <trkpt lat="29.5690643" lon="103.4130376"><ele>865.41</ele><time>2026-03-30T22:17:30.000Z</time></trkpt>
        <trkpt lat="29.569145" lon="103.4129541"><ele>865.39</ele><time>2026-03-30T22:17:42.000Z</time></trkpt>
        <trkpt lat="29.5692234" lon="103.4128827"><ele>864.87</ele><time>2026-03-30T22:17:52.000Z</time></trkpt>
        <trkpt lat="29.5693064" lon="103.4128134"><ele>864.91</ele><time>2026-03-30T22:18:02.000Z</time></trkpt>
        <trkpt lat="29.569395" lon="103.4127597"><ele>864.79</ele><time>2026-03-30T22:18:10.000Z</time></trkpt>
        <trkpt lat="29.5694781" lon="103.4127024"><ele>864.61</ele><time>2026-03-30T22:18:20.000Z</time></trkpt>
        <trkpt lat="29.569483" lon="103.4126106"><ele>864.96</ele><time>2026-03-30T22:18:30.000Z</time></trkpt>
        <trkpt lat="29.5694263" lon="103.4125177"><ele>865</ele><time>2026-03-30T22:18:40.000Z</time></trkpt>
        <trkpt lat="29.5694086" lon="103.412411"><ele>865.5</ele><time>2026-03-30T22:18:52.000Z</time></trkpt>
        <trkpt lat="29.5693839" lon="103.4122964"><ele>867.84</ele><time>2026-03-30T22:19:10.000Z</time></trkpt>
        <trkpt lat="29.5693859" lon="103.4122422"><ele>869.92</ele><time>2026-03-30T22:19:20.000Z</time></trkpt>
        <trkpt lat="29.569334" lon="103.412171"><ele>870.01</ele><time>2026-03-30T22:20:26.000Z</time></trkpt>
        <trkpt lat="29.5692454" lon="103.4121938"><ele>868.34</ele><time>2026-03-30T22:20:38.000Z</time></trkpt>
        <trkpt lat="29.5691573" lon="103.4121656"><ele>866.5</ele><time>2026-03-30T22:20:52.000Z</time></trkpt>
        <trkpt lat="29.5690695" lon="103.4121148"><ele>865.44</ele><time>2026-03-30T22:21:04.000Z</time></trkpt>
        <trkpt lat="29.5689974" lon="103.4120429"><ele>863.87</ele><time>2026-03-30T22:21:18.000Z</time></trkpt>
        <trkpt lat="29.5689472" lon="103.4119362"><ele>863.26</ele><time>2026-03-30T22:21:40.000Z</time></trkpt>
        <trkpt lat="29.568878" lon="103.4118528"><ele>862.17</ele><time>2026-03-30T22:21:50.000Z</time></trkpt>
        <trkpt lat="29.5687837" lon="103.4118431"><ele>861</ele><time>2026-03-30T22:22:02.000Z</time></trkpt>
        <trkpt lat="29.5686883" lon="103.4118449"><ele>856.7</ele><time>2026-03-30T22:22:14.000Z</time></trkpt>
        <trkpt lat="29.5685935" lon="103.4118374"><ele>852.46</ele><time>2026-03-30T22:22:24.000Z</time></trkpt>
        <trkpt lat="29.5685219" lon="103.4117647"><ele>851.52</ele><time>2026-03-30T22:22:38.000Z</time></trkpt>
        <trkpt lat="29.5684613" lon="103.4116717"><ele>852.23</ele><time>2026-03-30T22:22:52.000Z</time></trkpt>
        <trkpt lat="29.5684163" lon="103.4115637"><ele>851.28</ele><time>2026-03-30T22:23:04.000Z</time></trkpt>
        <trkpt lat="29.5683794" lon="103.4114614"><ele>847.92</ele><time>2026-03-30T22:23:14.000Z</time></trkpt>
        <trkpt lat="29.5684031" lon="103.4113333"><ele>843.92</ele><time>2026-03-30T22:23:22.000Z</time></trkpt>
        <trkpt lat="29.5684544" lon="103.4112108"><ele>840.38</ele><time>2026-03-30T22:23:32.000Z</time></trkpt>
        <trkpt lat="29.5685138" lon="103.4110913"><ele>837.77</ele><time>2026-03-30T22:23:40.000Z</time></trkpt>
        <trkpt lat="29.5685474" lon="103.4109824"><ele>836.83</ele><time>2026-03-30T22:23:48.000Z</time></trkpt>
        <trkpt lat="29.568559" lon="103.4108769"><ele>835.51</ele><time>2026-03-30T22:23:56.000Z</time></trkpt>
        <trkpt lat="29.5685982" lon="103.4107801"><ele>835.41</ele><time>2026-03-30T22:24:12.000Z</time></trkpt>
        <trkpt lat="29.568631" lon="103.4106809"><ele>834.22</ele><time>2026-03-30T22:24:28.000Z</time></trkpt>
        <trkpt lat="29.56867" lon="103.4105842"><ele>833.81</ele><time>2026-03-30T22:24:38.000Z</time></trkpt>
        <trkpt lat="29.5686956" lon="103.4104782"><ele>835.15</ele><time>2026-03-30T22:24:48.000Z</time></trkpt>
        <trkpt lat="29.5687105" lon="103.4103671"><ele>836.06</ele><time>2026-03-30T22:24:58.000Z</time></trkpt>
        <trkpt lat="29.5687058" lon="103.4102518"><ele>836.89</ele><time>2026-03-30T22:25:08.000Z</time></trkpt>
        <trkpt lat="29.5686979" lon="103.4101322"><ele>837.92</ele><time>2026-03-30T22:25:18.000Z</time></trkpt>
        <trkpt lat="29.5686575" lon="103.4100293"><ele>838.35</ele><time>2026-03-30T22:25:28.000Z</time></trkpt>
        <trkpt lat="29.5685787" lon="103.4099562"><ele>835.14</ele><time>2026-03-30T22:25:38.000Z</time></trkpt>
        <trkpt lat="29.5684793" lon="103.4099343"><ele>834.74</ele><time>2026-03-30T22:25:46.000Z</time></trkpt>
        <trkpt lat="29.5683984" lon="103.4098797"><ele>835.48</ele><time>2026-03-30T22:25:56.000Z</time></trkpt>
        <trkpt lat="29.5683513" lon="103.4097862"><ele>835.1</ele><time>2026-03-30T22:26:16.000Z</time></trkpt>
        <trkpt lat="29.5683005" lon="103.409685"><ele>835.49</ele><time>2026-03-30T22:26:30.000Z</time></trkpt>
        <trkpt lat="29.5682918" lon="103.409667"><ele>833.59</ele><time>2026-03-30T22:26:36.000Z</time></trkpt>
        <trkpt lat="29.568267" lon="103.4095942"><ele>832.18</ele><time>2026-03-30T22:26:54.000Z</time></trkpt>
        <trkpt lat="29.568221" lon="103.4095069"><ele>831.66</ele><time>2026-03-30T22:27:08.000Z</time></trkpt>
        <trkpt lat="29.5681855" lon="103.4094037"><ele>830.94</ele><time>2026-03-30T22:27:34.000Z</time></trkpt>
        <trkpt lat="29.5681337" lon="103.4093147"><ele>828.88</ele><time>2026-03-30T22:27:48.000Z</time></trkpt>
        <trkpt lat="29.5680724" lon="103.4092092"><ele>827.67</ele><time>2026-03-30T22:28:04.000Z</time></trkpt>
        <trkpt lat="29.5680517" lon="103.4090986"><ele>828.27</ele><time>2026-03-30T22:28:32.000Z</time></trkpt>
        <trkpt lat="29.5679885" lon="103.4090353"><ele>824.14</ele><time>2026-03-30T22:28:46.000Z</time></trkpt>
        <trkpt lat="29.5679579" lon="103.4089352"><ele>820.31</ele><time>2026-03-30T22:29:06.000Z</time></trkpt>
        <trkpt lat="29.5679407" lon="103.4088238"><ele>816.22</ele><time>2026-03-30T22:29:20.000Z</time></trkpt>
        <trkpt lat="29.5679335" lon="103.4087124"><ele>809.85</ele><time>2026-03-30T22:29:38.000Z</time></trkpt>
        <trkpt lat="29.5678849" lon="103.4086149"><ele>802.92</ele><time>2026-03-30T22:29:52.000Z</time></trkpt>
        <trkpt lat="29.5678426" lon="103.4085089"><ele>798.58</ele><time>2026-03-30T22:30:14.000Z</time></trkpt>
        <trkpt lat="29.5677719" lon="103.4084427"><ele>792.75</ele><time>2026-03-30T22:30:26.000Z</time></trkpt>
        <trkpt lat="29.5676953" lon="103.4083811"><ele>791.13</ele><time>2026-03-30T22:30:42.000Z</time></trkpt>
        <trkpt lat="29.5676436" lon="103.4083968"><ele>790.3</ele><time>2026-03-30T22:30:54.000Z</time></trkpt>
        <trkpt lat="29.5676365" lon="103.4084984"><ele>789.18</ele><time>2026-03-30T22:31:04.000Z</time></trkpt>
        <trkpt lat="29.5675872" lon="103.4086056"><ele>788.27</ele><time>2026-03-30T22:31:12.000Z</time></trkpt>
        <trkpt lat="29.5675179" lon="103.4086869"><ele>787.59</ele><time>2026-03-30T22:31:18.000Z</time></trkpt>
        <trkpt lat="29.5674249" lon="103.4086651"><ele>788.05</ele><time>2026-03-30T22:31:28.000Z</time></trkpt>
        <trkpt lat="29.5673355" lon="103.408591"><ele>788.48</ele><time>2026-03-30T22:31:38.000Z</time></trkpt>
        <trkpt lat="29.5672574" lon="103.4085134"><ele>788.13</ele><time>2026-03-30T22:31:46.000Z</time></trkpt>
        <trkpt lat="29.5671715" lon="103.4084638"><ele>787.31</ele><time>2026-03-30T22:31:54.000Z</time></trkpt>
        <trkpt lat="29.5670804" lon="103.4084497"><ele>787.13</ele><time>2026-03-30T22:32:02.000Z</time></trkpt>
        <trkpt lat="29.566978" lon="103.4084518"><ele>787.42</ele><time>2026-03-30T22:32:12.000Z</time></trkpt>
        <trkpt lat="29.566884" lon="103.4084435"><ele>786.92</ele><time>2026-03-30T22:32:22.000Z</time></trkpt>
        <trkpt lat="29.5667924" lon="103.4084554"><ele>786.47</ele><time>2026-03-30T22:32:32.000Z</time></trkpt>
        <trkpt lat="29.5667263" lon="103.4083833"><ele>783.81</ele><time>2026-03-30T22:32:40.000Z</time></trkpt>
        <trkpt lat="29.5667107" lon="103.408274"><ele>782</ele><time>2026-03-30T22:32:48.000Z</time></trkpt>
        <trkpt lat="29.5667362" lon="103.4081607"><ele>780.61</ele><time>2026-03-30T22:32:56.000Z</time></trkpt>
        <trkpt lat="29.5667407" lon="103.4080398"><ele>779.78</ele><time>2026-03-30T22:33:04.000Z</time></trkpt>
        <trkpt lat="29.566703" lon="103.4079351"><ele>781.46</ele><time>2026-03-30T22:33:14.000Z</time></trkpt>
        <trkpt lat="29.5666248" lon="103.4078737"><ele>781.57</ele><time>2026-03-30T22:33:24.000Z</time></trkpt>
        <trkpt lat="29.5666012" lon="103.4078675"><ele>782.04</ele><time>2026-03-30T22:33:26.000Z</time></trkpt>
        <trkpt lat="29.5666299" lon="103.4078023"><ele>782.55</ele><time>2026-03-30T22:33:48.000Z</time></trkpt>
        <trkpt lat="29.5666502" lon="103.4077279"><ele>782.02</ele><time>2026-03-30T22:33:56.000Z</time></trkpt>
        <trkpt lat="29.5666842" lon="103.4077858"><ele>782.84</ele><time>2026-03-30T22:34:48.000Z</time></trkpt>
        <trkpt lat="29.5667214" lon="103.407887"><ele>783.29</ele><time>2026-03-30T22:34:58.000Z</time></trkpt>
        <trkpt lat="29.5667316" lon="103.4079252"><ele>782.94</ele><time>2026-03-30T22:35:02.000Z</time></trkpt>
        <trkpt lat="29.5668083" lon="103.407924"><ele>782.81</ele><time>2026-03-30T22:35:26.000Z</time></trkpt>
        <trkpt lat="29.566847" lon="103.4077981"><ele>779.44</ele><time>2026-03-30T22:38:32.000Z</time></trkpt>
        <trkpt lat="29.5669256" lon="103.4077306"><ele>777.41</ele><time>2026-03-30T22:38:42.000Z</time></trkpt>
        <trkpt lat="29.5669913" lon="103.4076508"><ele>775.89</ele><time>2026-03-30T22:38:54.000Z</time></trkpt>
        <trkpt lat="29.5669714" lon="103.4077023"><ele>776.36</ele><time>2026-03-30T22:39:40.000Z</time></trkpt>
        <trkpt lat="29.5669183" lon="103.4078095"><ele>774.61</ele><time>2026-03-30T22:39:52.000Z</time></trkpt>
        <trkpt lat="29.5668469" lon="103.4079116"><ele>772.23</ele><time>2026-03-30T22:40:00.000Z</time></trkpt>
        <trkpt lat="29.5667541" lon="103.407956"><ele>771.14</ele><time>2026-03-30T22:40:16.000Z</time></trkpt>
        <trkpt lat="29.5667462" lon="103.4080462"><ele>772.83</ele><time>2026-03-30T22:40:26.000Z</time></trkpt>
        <trkpt lat="29.566753" lon="103.4081637"><ele>772.95</ele><time>2026-03-30T22:40:36.000Z</time></trkpt>
        <trkpt lat="29.566739" lon="103.4082819"><ele>773.02</ele><time>2026-03-30T22:40:44.000Z</time></trkpt>
        <trkpt lat="29.5667418" lon="103.4083977"><ele>774.11</ele><time>2026-03-30T22:40:56.000Z</time></trkpt>
        <trkpt lat="29.5667537" lon="103.4084593"><ele>774.98</ele><time>2026-03-30T22:41:04.000Z</time></trkpt>
        <trkpt lat="29.5668311" lon="103.4084926"><ele>775.95</ele><time>2026-03-30T22:41:18.000Z</time></trkpt>
        <trkpt lat="29.5669349" lon="103.4084642"><ele>775.9</ele><time>2026-03-30T22:41:28.000Z</time></trkpt>
        <trkpt lat="29.5670469" lon="103.4084604"><ele>775.67</ele><time>2026-03-30T22:41:38.000Z</time></trkpt>
        <trkpt lat="29.5671624" lon="103.4084593"><ele>775.98</ele><time>2026-03-30T22:41:48.000Z</time></trkpt>
        <trkpt lat="29.5672642" lon="103.4084596"><ele>776.57</ele><time>2026-03-30T22:41:56.000Z</time></trkpt>
        <trkpt lat="29.5673435" lon="103.4085122"><ele>777.37</ele><time>2026-03-30T22:42:04.000Z</time></trkpt>
        <trkpt lat="29.5674194" lon="103.4085825"><ele>777.76</ele><time>2026-03-30T22:42:12.000Z</time></trkpt>
        <trkpt lat="29.5675046" lon="103.4086365"><ele>778.7</ele><time>2026-03-30T22:42:22.000Z</time></trkpt>
        <trkpt lat="29.5675943" lon="103.4086348"><ele>780.35</ele><time>2026-03-30T22:42:34.000Z</time></trkpt>
        <trkpt lat="29.5676567" lon="103.4085546"><ele>781.48</ele><time>2026-03-30T22:42:48.000Z</time></trkpt>
        <trkpt lat="29.5676988" lon="103.4084407"><ele>782.62</ele><time>2026-03-30T22:43:00.000Z</time></trkpt>
        <trkpt lat="29.5677578" lon="103.4084561"><ele>783.11</ele><time>2026-03-30T22:43:16.000Z</time></trkpt>
        <trkpt lat="29.5678328" lon="103.4085151"><ele>784.64</ele><time>2026-03-30T22:43:30.000Z</time></trkpt>
        <trkpt lat="29.5678745" lon="103.4086504"><ele>785.9</ele><time>2026-03-30T22:44:34.000Z</time></trkpt>
        <trkpt lat="29.5679599" lon="103.408703"><ele>787.83</ele><time>2026-03-30T22:44:42.000Z</time></trkpt>
        <trkpt lat="29.5679749" lon="103.4088073"><ele>788.92</ele><time>2026-03-30T22:44:50.000Z</time></trkpt>
        <trkpt lat="29.5679928" lon="103.4089139"><ele>789.01</ele><time>2026-03-30T22:45:02.000Z</time></trkpt>
        <trkpt lat="29.5680115" lon="103.4090245"><ele>789.4</ele><time>2026-03-30T22:45:18.000Z</time></trkpt>
        <trkpt lat="29.5680666" lon="103.4091201"><ele>792.36</ele><time>2026-03-30T22:46:00.000Z</time></trkpt>
        <trkpt lat="29.5681028" lon="103.409219"><ele>796.04</ele><time>2026-03-30T22:46:10.000Z</time></trkpt>
        <trkpt lat="29.5681577" lon="103.4093016"><ele>800.87</ele><time>2026-03-30T22:46:56.000Z</time></trkpt>
        <trkpt lat="29.5682172" lon="103.4093933"><ele>806.42</ele><time>2026-03-30T22:47:26.000Z</time></trkpt>
        <trkpt lat="29.568287" lon="103.4094873"><ele>810.08</ele><time>2026-03-30T22:48:58.000Z</time></trkpt>
        <trkpt lat="29.5682794" lon="103.4095917"><ele>814.67</ele><time>2026-03-30T22:49:16.000Z</time></trkpt>
        <trkpt lat="29.5683161" lon="103.4096891"><ele>820.5</ele><time>2026-03-30T22:49:30.000Z</time></trkpt>
        <trkpt lat="29.5683643" lon="103.4097798"><ele>826.68</ele><time>2026-03-30T22:49:48.000Z</time></trkpt>
        <trkpt lat="29.5684127" lon="103.4098917"><ele>831.71</ele><time>2026-03-30T22:50:12.000Z</time></trkpt>
        <trkpt lat="29.5684791" lon="103.4099854"><ele>834.51</ele><time>2026-03-30T22:50:22.000Z</time></trkpt>
        <trkpt lat="29.5685611" lon="103.4100414"><ele>836.86</ele><time>2026-03-30T22:50:32.000Z</time></trkpt>
        <trkpt lat="29.5686161" lon="103.4100887"><ele>837.03</ele><time>2026-03-30T22:50:44.000Z</time></trkpt>
        <trkpt lat="29.5686531" lon="103.4101742"><ele>836.16</ele><time>2026-03-30T22:50:52.000Z</time></trkpt>
        <trkpt lat="29.5686701" lon="103.4102974"><ele>835.98</ele><time>2026-03-30T22:51:00.000Z</time></trkpt>
        <trkpt lat="29.5686781" lon="103.4104312"><ele>836.67</ele><time>2026-03-30T22:51:08.000Z</time></trkpt>
        <trkpt lat="29.5686898" lon="103.4105554"><ele>838.05</ele><time>2026-03-30T22:51:14.000Z</time></trkpt>
        <trkpt lat="29.5686717" lon="103.4106751"><ele>838.81</ele><time>2026-03-30T22:51:22.000Z</time></trkpt>
        <trkpt lat="29.5686535" lon="103.4107932"><ele>839.8</ele><time>2026-03-30T22:51:34.000Z</time></trkpt>
        <trkpt lat="29.5686053" lon="103.410895"><ele>839.18</ele><time>2026-03-30T22:51:46.000Z</time></trkpt>
        <trkpt lat="29.5685658" lon="103.4110048"><ele>838.97</ele><time>2026-03-30T22:52:00.000Z</time></trkpt>
        <trkpt lat="29.5685403" lon="103.4111154"><ele>838.23</ele><time>2026-03-30T22:52:08.000Z</time></trkpt>
        <trkpt lat="29.5685389" lon="103.4112272"><ele>837.99</ele><time>2026-03-30T22:52:16.000Z</time></trkpt>
        <trkpt lat="29.5684963" lon="103.4113179"><ele>837.12</ele><time>2026-03-30T22:52:24.000Z</time></trkpt>
        <trkpt lat="29.5684474" lon="103.4114178"><ele>837.26</ele><time>2026-03-30T22:52:32.000Z</time></trkpt>
        <trkpt lat="29.5683856" lon="103.4115063"><ele>837.62</ele><time>2026-03-30T22:52:44.000Z</time></trkpt>
        <trkpt lat="29.5684044" lon="103.4116066"><ele>838.58</ele><time>2026-03-30T22:52:52.000Z</time></trkpt>
        <trkpt lat="29.5684504" lon="103.4116427"><ele>839.03</ele><time>2026-03-30T22:52:56.000Z</time></trkpt>
        <trkpt lat="29.5685281" lon="103.4116971"><ele>838.79</ele><time>2026-03-30T22:53:08.000Z</time></trkpt>
        <trkpt lat="29.5686082" lon="103.4117734"><ele>838.9</ele><time>2026-03-30T22:53:18.000Z</time></trkpt>
        <trkpt lat="29.568698" lon="103.4118342"><ele>839.01</ele><time>2026-03-30T22:53:30.000Z</time></trkpt>
        <trkpt lat="29.5687977" lon="103.4118616"><ele>840.11</ele><time>2026-03-30T22:53:40.000Z</time></trkpt>
        <trkpt lat="29.5688905" lon="103.4118846"><ele>841.48</ele><time>2026-03-30T22:53:50.000Z</time></trkpt>
        <trkpt lat="29.5689637" lon="103.4119481"><ele>843.4</ele><time>2026-03-30T22:53:58.000Z</time></trkpt>
        <trkpt lat="29.5690228" lon="103.4120366"><ele>845.13</ele><time>2026-03-30T22:54:06.000Z</time></trkpt>
        <trkpt lat="29.5690977" lon="103.4121159"><ele>846.12</ele><time>2026-03-30T22:54:30.000Z</time></trkpt>
        <trkpt lat="29.5691747" lon="103.4121817"><ele>848.72</ele><time>2026-03-30T22:54:48.000Z</time></trkpt>
        <trkpt lat="29.5692598" lon="103.4122183"><ele>850.08</ele><time>2026-03-30T22:55:02.000Z</time></trkpt>
        <trkpt lat="29.5693483" lon="103.4122064"><ele>852.1</ele><time>2026-03-30T22:55:14.000Z</time></trkpt>
        <trkpt lat="29.569403" lon="103.4122754"><ele>853.75</ele><time>2026-03-30T22:56:00.000Z</time></trkpt>
        <trkpt lat="29.569425" lon="103.412377"><ele>857.11</ele><time>2026-03-30T22:56:16.000Z</time></trkpt>
        <trkpt lat="29.5694458" lon="103.4124929"><ele>860.85</ele><time>2026-03-30T22:56:38.000Z</time></trkpt>
        <trkpt lat="29.5694308" lon="103.4125283"><ele>867.39</ele><time>2026-03-30T22:56:42.000Z</time></trkpt>
        <trkpt lat="29.5694392" lon="103.4126166"><ele>871.21</ele><time>2026-03-30T22:57:06.000Z</time></trkpt>
        <trkpt lat="29.5694499" lon="103.41272"><ele>873.11</ele><time>2026-03-30T22:57:16.000Z</time></trkpt>
        <trkpt lat="29.5693939" lon="103.4127911"><ele>874.26</ele><time>2026-03-30T22:57:24.000Z</time></trkpt>
        <trkpt lat="29.5693051" lon="103.4128185"><ele>874.54</ele><time>2026-03-30T22:57:32.000Z</time></trkpt>
        <trkpt lat="29.5692366" lon="103.4128649"><ele>873.63</ele><time>2026-03-30T22:57:38.000Z</time></trkpt>
        <trkpt lat="29.5691683" lon="103.4129288"><ele>873.65</ele><time>2026-03-30T22:57:50.000Z</time></trkpt>
        <trkpt lat="29.5691175" lon="103.4130153"><ele>873.5</ele><time>2026-03-30T22:58:00.000Z</time></trkpt>
        <trkpt lat="29.5690761" lon="103.4130744"><ele>872.82</ele><time>2026-03-30T22:58:06.000Z</time></trkpt>
        <trkpt lat="29.5690255" lon="103.41315"><ele>873.19</ele><time>2026-03-30T22:58:36.000Z</time></trkpt>
        <trkpt lat="29.5690048" lon="103.4132503"><ele>873.55</ele><time>2026-03-30T22:58:46.000Z</time></trkpt>
        <trkpt lat="29.5690085" lon="103.4133714"><ele>874.2</ele><time>2026-03-30T22:58:58.000Z</time></trkpt>
        <trkpt lat="29.5690257" lon="103.4134888"><ele>874.5</ele><time>2026-03-30T22:59:06.000Z</time></trkpt>
        <trkpt lat="29.5690493" lon="103.4136115"><ele>874.82</ele><time>2026-03-30T22:59:14.000Z</time></trkpt>
        <trkpt lat="29.5691013" lon="103.4137215"><ele>875.93</ele><time>2026-03-30T22:59:22.000Z</time></trkpt>
        <trkpt lat="29.5691726" lon="103.4138173"><ele>877.2</ele><time>2026-03-30T22:59:30.000Z</time></trkpt>
        <trkpt lat="29.5691948" lon="103.4139197"><ele>877.99</ele><time>2026-03-30T22:59:40.000Z</time></trkpt>
        <trkpt lat="29.5691599" lon="103.4140302"><ele>879.42</ele><time>2026-03-30T22:59:50.000Z</time></trkpt>
        <trkpt lat="29.5691513" lon="103.4141545"><ele>879.87</ele><time>2026-03-30T22:59:58.000Z</time></trkpt>
        <trkpt lat="29.5691737" lon="103.4142673"><ele>879.85</ele><time>2026-03-30T23:00:04.000Z</time></trkpt>
        <trkpt lat="29.5691663" lon="103.4143822"><ele>879.42</ele><time>2026-03-30T23:00:14.000Z</time></trkpt>
        <trkpt lat="29.5691455" lon="103.4144909"><ele>881.3</ele><time>2026-03-30T23:00:22.000Z</time></trkpt>
        <trkpt lat="29.5691346" lon="103.4146045"><ele>882.21</ele><time>2026-03-30T23:00:30.000Z</time></trkpt>
        <trkpt lat="29.5691797" lon="103.4147111"><ele>884.05</ele><time>2026-03-30T23:00:36.000Z</time></trkpt>
        <trkpt lat="29.5692576" lon="103.4147953"><ele>885.42</ele><time>2026-03-30T23:00:46.000Z</time></trkpt>
        <trkpt lat="29.5693341" lon="103.4148687"><ele>885.61</ele><time>2026-03-30T23:00:56.000Z</time></trkpt>
        <trkpt lat="29.5694155" lon="103.4148415"><ele>883.13</ele><time>2026-03-30T23:01:02.000Z</time></trkpt>
        <trkpt lat="29.5695094" lon="103.4147982"><ele>881.63</ele><time>2026-03-30T23:01:12.000Z</time></trkpt>
        <trkpt lat="29.5696146" lon="103.4147552"><ele>880.31</ele><time>2026-03-30T23:01:22.000Z</time></trkpt>
        <trkpt lat="29.5697159" lon="103.4147378"><ele>880.06</ele><time>2026-03-30T23:01:32.000Z</time></trkpt>
        <trkpt lat="29.5698054" lon="103.4147849"><ele>880.77</ele><time>2026-03-30T23:01:42.000Z</time></trkpt>
        <trkpt lat="29.5698791" lon="103.4148603"><ele>881.98</ele><time>2026-03-30T23:01:50.000Z</time></trkpt>
        <trkpt lat="29.5699298" lon="103.4149597"><ele>882.46</ele><time>2026-03-30T23:02:00.000Z</time></trkpt>
        <trkpt lat="29.5699382" lon="103.415078"><ele>882.71</ele><time>2026-03-30T23:02:08.000Z</time></trkpt>
        <trkpt lat="29.569946" lon="103.4151915"><ele>884.96</ele><time>2026-03-30T23:02:16.000Z</time></trkpt>
        <trkpt lat="29.5699605" lon="103.4153062"><ele>885.6</ele><time>2026-03-30T23:02:26.000Z</time></trkpt>
        <trkpt lat="29.570008" lon="103.4154003"><ele>885.29</ele><time>2026-03-30T23:02:34.000Z</time></trkpt>
        <trkpt lat="29.5700695" lon="103.4154867"><ele>884.92</ele><time>2026-03-30T23:02:46.000Z</time></trkpt>
        <trkpt lat="29.570165" lon="103.4155446"><ele>884.94</ele><time>2026-03-30T23:02:56.000Z</time></trkpt>
        <trkpt lat="29.5702707" lon="103.415568"><ele>884.52</ele><time>2026-03-30T23:03:04.000Z</time></trkpt>
        <trkpt lat="29.5703749" lon="103.4155844"><ele>883.26</ele><time>2026-03-30T23:03:12.000Z</time></trkpt>
        <trkpt lat="29.5704607" lon="103.4156398"><ele>881.93</ele><time>2026-03-30T23:03:20.000Z</time></trkpt>
        <trkpt lat="29.5705224" lon="103.4157207"><ele>880.38</ele><time>2026-03-30T23:03:26.000Z</time></trkpt>
        <trkpt lat="29.5705919" lon="103.4157945"><ele>879.41</ele><time>2026-03-30T23:03:34.000Z</time></trkpt>
        <trkpt lat="29.5706778" lon="103.4158181"><ele>879.82</ele><time>2026-03-30T23:03:44.000Z</time></trkpt>
        <trkpt lat="29.5707203" lon="103.4159014"><ele>880.28</ele><time>2026-03-30T23:03:52.000Z</time></trkpt>
        <trkpt lat="29.5707828" lon="103.4159845"><ele>880.55</ele><time>2026-03-30T23:04:04.000Z</time></trkpt>
        <trkpt lat="29.5707793" lon="103.4160835"><ele>880.56</ele><time>2026-03-30T23:04:24.000Z</time></trkpt>
        <trkpt lat="29.5707073" lon="103.4161487"><ele>882.03</ele><time>2026-03-30T23:04:34.000Z</time></trkpt>
        <trkpt lat="29.5706077" lon="103.4161709"><ele>884.14</ele><time>2026-03-30T23:04:58.000Z</time></trkpt>
        <trkpt lat="29.5704981" lon="103.4161849"><ele>881.29</ele><time>2026-03-30T23:05:14.000Z</time></trkpt>
        <trkpt lat="29.570425" lon="103.4162537"><ele>879.01</ele><time>2026-03-30T23:05:24.000Z</time></trkpt>
        <trkpt lat="29.5704487" lon="103.4163385"><ele>877.19</ele><time>2026-03-30T23:05:32.000Z</time></trkpt>
        <trkpt lat="29.5704401" lon="103.4164444"><ele>876.7</ele><time>2026-03-30T23:05:56.000Z</time></trkpt>
        <trkpt lat="29.570435" lon="103.4165559"><ele>876.3</ele><time>2026-03-30T23:06:06.000Z</time></trkpt>
        <trkpt lat="29.5704138" lon="103.4166663"><ele>875.2</ele><time>2026-03-30T23:06:14.000Z</time></trkpt>
        <trkpt lat="29.5704097" lon="103.416778"><ele>875.11</ele><time>2026-03-30T23:06:22.000Z</time></trkpt>
        <trkpt lat="29.5704166" lon="103.4168841"><ele>877.82</ele><time>2026-03-30T23:06:30.000Z</time></trkpt>
        <trkpt lat="29.5704096" lon="103.4169945"><ele>878.66</ele><time>2026-03-30T23:06:40.000Z</time></trkpt>
        <trkpt lat="29.5703341" lon="103.417057"><ele>878.11</ele><time>2026-03-30T23:06:48.000Z</time></trkpt>
        <trkpt lat="29.5702412" lon="103.4170924"><ele>877.15</ele><time>2026-03-30T23:07:00.000Z</time></trkpt>
        <trkpt lat="29.5701471" lon="103.4171342"><ele>876.08</ele><time>2026-03-30T23:07:10.000Z</time></trkpt>
        <trkpt lat="29.5701129" lon="103.417227"><ele>875.23</ele><time>2026-03-30T23:07:18.000Z</time></trkpt>
        <trkpt lat="29.5700571" lon="103.4173375"><ele>876.73</ele><time>2026-03-30T23:07:26.000Z</time></trkpt>
        <trkpt lat="29.5700649" lon="103.4174447"><ele>878.3</ele><time>2026-03-30T23:07:34.000Z</time></trkpt>
        <trkpt lat="29.5700758" lon="103.4175632"><ele>879.63</ele><time>2026-03-30T23:07:44.000Z</time></trkpt>
        <trkpt lat="29.5700745" lon="103.4176901"><ele>880.56</ele><time>2026-03-30T23:07:54.000Z</time></trkpt>
        <trkpt lat="29.5700586" lon="103.4178042"><ele>879.56</ele><time>2026-03-30T23:08:04.000Z</time></trkpt>
        <trkpt lat="29.570019" lon="103.4179084"><ele>878.02</ele><time>2026-03-30T23:08:16.000Z</time></trkpt>
        <trkpt lat="29.5699483" lon="103.4179825"><ele>877.79</ele><time>2026-03-30T23:08:24.000Z</time></trkpt>
        <trkpt lat="29.5698685" lon="103.4180533"><ele>878.67</ele><time>2026-03-30T23:08:34.000Z</time></trkpt>
        <trkpt lat="29.5698306" lon="103.4181623"><ele>880.66</ele><time>2026-03-30T23:08:44.000Z</time></trkpt>
        <trkpt lat="29.569829" lon="103.4182731"><ele>880.88</ele><time>2026-03-30T23:08:52.000Z</time></trkpt>
        <trkpt lat="29.5698317" lon="103.418405"><ele>880.97</ele><time>2026-03-30T23:09:02.000Z</time></trkpt>
        <trkpt lat="29.5698142" lon="103.4185184"><ele>882.7</ele><time>2026-03-30T23:09:10.000Z</time></trkpt>
        <trkpt lat="29.5697771" lon="103.4186299"><ele>882.57</ele><time>2026-03-30T23:09:20.000Z</time></trkpt>
        <trkpt lat="29.5697764" lon="103.4187062"><ele>885.16</ele><time>2026-03-30T23:09:26.000Z</time></trkpt>
        <trkpt lat="29.5697793" lon="103.4188028"><ele>886.93</ele><time>2026-03-30T23:09:34.000Z</time></trkpt>
        <trkpt lat="29.5697882" lon="103.4189241"><ele>888.95</ele><time>2026-03-30T23:09:42.000Z</time></trkpt>
        <trkpt lat="29.5697956" lon="103.4190388"><ele>889.99</ele><time>2026-03-30T23:09:52.000Z</time></trkpt>
        <trkpt lat="29.5698172" lon="103.4191454"><ele>891.14</ele><time>2026-03-30T23:10:00.000Z</time></trkpt>
        <trkpt lat="29.5698055" lon="103.4192487"><ele>891.2</ele><time>2026-03-30T23:10:10.000Z</time></trkpt>
        <trkpt lat="29.569789" lon="103.4192957"><ele>891.03</ele><time>2026-03-30T23:10:18.000Z</time></trkpt>
        <trkpt lat="29.569733" lon="103.4193593"><ele>890.26</ele><time>2026-03-30T23:10:40.000Z</time></trkpt>
        <trkpt lat="29.5696689" lon="103.4194462"><ele>888.91</ele><time>2026-03-30T23:10:48.000Z</time></trkpt>
        <trkpt lat="29.5696302" lon="103.4195508"><ele>888.01</ele><time>2026-03-30T23:10:54.000Z</time></trkpt>
        <trkpt lat="29.5695594" lon="103.4196201"><ele>888.47</ele><time>2026-03-30T23:11:08.000Z</time></trkpt>
        <trkpt lat="29.5694875" lon="103.4196911"><ele>890.54</ele><time>2026-03-30T23:11:18.000Z</time></trkpt>
        <trkpt lat="29.5694505" lon="103.4197853"><ele>892.03</ele><time>2026-03-30T23:11:28.000Z</time></trkpt>
        <trkpt lat="29.5693837" lon="103.4198556"><ele>892.3</ele><time>2026-03-30T23:11:38.000Z</time></trkpt>
        <trkpt lat="29.5692939" lon="103.4198615"><ele>895.98</ele><time>2026-03-30T23:11:48.000Z</time></trkpt>
        <trkpt lat="29.5691878" lon="103.4198729"><ele>897.92</ele><time>2026-03-30T23:12:00.000Z</time></trkpt>
        <trkpt lat="29.5690922" lon="103.4198967"><ele>900.64</ele><time>2026-03-30T23:12:10.000Z</time></trkpt>
        <trkpt lat="29.5689942" lon="103.4199274"><ele>902.48</ele><time>2026-03-30T23:12:22.000Z</time></trkpt>
        <trkpt lat="29.568914" lon="103.4199805"><ele>904.37</ele><time>2026-03-30T23:14:16.000Z</time></trkpt>
        <trkpt lat="29.5688164" lon="103.4200286"><ele>901.59</ele><time>2026-03-30T23:14:26.000Z</time></trkpt>
        <trkpt lat="29.5688483" lon="103.4201508"><ele>900.06</ele><time>2026-03-30T23:15:32.000Z</time></trkpt>
        <trkpt lat="29.5689301" lon="103.4202297"><ele>897.05</ele><time>2026-03-30T23:15:40.000Z</time></trkpt>
        <trkpt lat="29.5690285" lon="103.4202211"><ele>895.31</ele><time>2026-03-30T23:15:48.000Z</time></trkpt>
        <trkpt lat="29.5691025" lon="103.4202702"><ele>894.13</ele><time>2026-03-30T23:15:56.000Z</time></trkpt>
        <trkpt lat="29.5691912" lon="103.420333"><ele>892.4</ele><time>2026-03-30T23:16:04.000Z</time></trkpt>
        <trkpt lat="29.5692618" lon="103.4204192"><ele>891.16</ele><time>2026-03-30T23:16:12.000Z</time></trkpt>
        <trkpt lat="29.5692835" lon="103.4204858"><ele>891.06</ele><time>2026-03-30T23:16:18.000Z</time></trkpt>
        <trkpt lat="29.5693428" lon="103.4205555"><ele>891.24</ele><time>2026-03-30T23:17:10.000Z</time></trkpt>
        <trkpt lat="29.5694161" lon="103.4206219"><ele>890.31</ele><time>2026-03-30T23:17:18.000Z</time></trkpt>
        <trkpt lat="29.5694904" lon="103.4206974"><ele>890.01</ele><time>2026-03-30T23:17:28.000Z</time></trkpt>
        <trkpt lat="29.5695606" lon="103.4207702"><ele>890.03</ele><time>2026-03-30T23:17:38.000Z</time></trkpt>
        <trkpt lat="29.5696236" lon="103.4208462"><ele>890.22</ele><time>2026-03-30T23:17:46.000Z</time></trkpt>
        <trkpt lat="29.5697037" lon="103.4209276"><ele>890.39</ele><time>2026-03-30T23:17:56.000Z</time></trkpt>
        <trkpt lat="29.5697206" lon="103.4210473"><ele>890.28</ele><time>2026-03-30T23:18:06.000Z</time></trkpt>
        <trkpt lat="29.5697562" lon="103.4211759"><ele>888.9</ele><time>2026-03-30T23:18:14.000Z</time></trkpt>
        <trkpt lat="29.5697965" lon="103.421285"><ele>888.35</ele><time>2026-03-30T23:18:22.000Z</time></trkpt>
        <trkpt lat="29.5698562" lon="103.4213692"><ele>888.22</ele><time>2026-03-30T23:18:30.000Z</time></trkpt>
        <trkpt lat="29.5699382" lon="103.4214534"><ele>888.05</ele><time>2026-03-30T23:18:40.000Z</time></trkpt>
        <trkpt lat="29.570028" lon="103.4215353"><ele>888.56</ele><time>2026-03-30T23:18:50.000Z</time></trkpt>
        <trkpt lat="29.570124" lon="103.4216057"><ele>888.84</ele><time>2026-03-30T23:18:58.000Z</time></trkpt>
        <trkpt lat="29.5702208" lon="103.4216425"><ele>888.72</ele><time>2026-03-30T23:19:06.000Z</time></trkpt>
        <trkpt lat="29.5703225" lon="103.4216293"><ele>888.88</ele><time>2026-03-30T23:19:16.000Z</time></trkpt>
        <trkpt lat="29.5704284" lon="103.4216194"><ele>889.95</ele><time>2026-03-30T23:19:24.000Z</time></trkpt>
        <trkpt lat="29.5705307" lon="103.4216344"><ele>889.8</ele><time>2026-03-30T23:19:32.000Z</time></trkpt>
        <trkpt lat="29.5706261" lon="103.4216767"><ele>889.69</ele><time>2026-03-30T23:19:40.000Z</time></trkpt>
        <trkpt lat="29.5707036" lon="103.4217492"><ele>889.37</ele><time>2026-03-30T23:19:50.000Z</time></trkpt>
        <trkpt lat="29.5707811" lon="103.4218235"><ele>890.02</ele><time>2026-03-30T23:19:58.000Z</time></trkpt>
        <trkpt lat="29.5708635" lon="103.4219151"><ele>889.81</ele><time>2026-03-30T23:20:06.000Z</time></trkpt>
        <trkpt lat="29.5709213" lon="103.4220102"><ele>889.69</ele><time>2026-03-30T23:20:16.000Z</time></trkpt>
        <trkpt lat="29.5709826" lon="103.4221102"><ele>888.91</ele><time>2026-03-30T23:20:24.000Z</time></trkpt>
        <trkpt lat="29.5710443" lon="103.4222124"><ele>888.04</ele><time>2026-03-30T23:20:32.000Z</time></trkpt>
        <trkpt lat="29.5710802" lon="103.4223136"><ele>888.23</ele><time>2026-03-30T23:20:40.000Z</time></trkpt>
        <trkpt lat="29.5711147" lon="103.4224274"><ele>887.17</ele><time>2026-03-30T23:20:50.000Z</time></trkpt>
        <trkpt lat="29.5711658" lon="103.4225221"><ele>886.42</ele><time>2026-03-30T23:20:58.000Z</time></trkpt>
        <trkpt lat="29.5712375" lon="103.4226173"><ele>886.07</ele><time>2026-03-30T23:21:08.000Z</time></trkpt>
        <trkpt lat="29.5713071" lon="103.4226947"><ele>887.96</ele><time>2026-03-30T23:21:18.000Z</time></trkpt>
        <trkpt lat="29.5713875" lon="103.4227582"><ele>889.83</ele><time>2026-03-30T23:21:28.000Z</time></trkpt>
        <trkpt lat="29.571477" lon="103.4228211"><ele>888.48</ele><time>2026-03-30T23:21:38.000Z</time></trkpt>
        <trkpt lat="29.5715583" lon="103.4229019"><ele>887.25</ele><time>2026-03-30T23:21:46.000Z</time></trkpt>
        <trkpt lat="29.5715762" lon="103.4229165"><ele>886.28</ele><time>2026-03-30T23:21:48.000Z</time></trkpt>
        <trkpt lat="29.5716543" lon="103.4229457"><ele>885.26</ele><time>2026-03-30T23:22:08.000Z</time></trkpt>
        <trkpt lat="29.5717469" lon="103.4229804"><ele>884.29</ele><time>2026-03-30T23:22:16.000Z</time></trkpt>
        <trkpt lat="29.5718543" lon="103.4230144"><ele>883.69</ele><time>2026-03-30T23:22:26.000Z</time></trkpt>
        <trkpt lat="29.5719496" lon="103.4230679"><ele>883.46</ele><time>2026-03-30T23:22:34.000Z</time></trkpt>
        <trkpt lat="29.5720268" lon="103.4231383"><ele>883.79</ele><time>2026-03-30T23:22:42.000Z</time></trkpt>
        <trkpt lat="29.572115" lon="103.423175"><ele>885.51</ele><time>2026-03-30T23:22:50.000Z</time></trkpt>
        <trkpt lat="29.5722028" lon="103.4232421"><ele>883.79</ele><time>2026-03-30T23:23:00.000Z</time></trkpt>
        <trkpt lat="29.5722889" lon="103.423298"><ele>882.92</ele><time>2026-03-30T23:23:08.000Z</time></trkpt>
        <trkpt lat="29.5723822" lon="103.4233503"><ele>881.4</ele><time>2026-03-30T23:23:18.000Z</time></trkpt>
        <trkpt lat="29.5724779" lon="103.4233963"><ele>878.67</ele><time>2026-03-30T23:23:26.000Z</time></trkpt>
        <trkpt lat="29.5725679" lon="103.4234486"><ele>876.98</ele><time>2026-03-30T23:23:34.000Z</time></trkpt>
        <trkpt lat="29.5726476" lon="103.4235048"><ele>876.08</ele><time>2026-03-30T23:23:42.000Z</time></trkpt>
        <trkpt lat="29.5727282" lon="103.4235653"><ele>874.9</ele><time>2026-03-30T23:23:50.000Z</time></trkpt>
        <trkpt lat="29.5727403" lon="103.423539"><ele>874.05</ele><time>2026-03-30T23:23:52.000Z</time></trkpt>
        <trkpt lat="29.5727755" lon="103.4235949"><ele>871.88</ele><time>2026-03-30T23:24:06.000Z</time></trkpt>
        <trkpt lat="29.5728179" lon="103.4236912"><ele>871.61</ele><time>2026-03-30T23:24:16.000Z</time></trkpt>
        <trkpt lat="29.572831" lon="103.423805"><ele>869.91</ele><time>2026-03-30T23:24:26.000Z</time></trkpt>
        <trkpt lat="29.5728102" lon="103.4239252"><ele>868.51</ele><time>2026-03-30T23:24:36.000Z</time></trkpt>
        <trkpt lat="29.5727746" lon="103.4240399"><ele>867.36</ele><time>2026-03-30T23:24:44.000Z</time></trkpt>
        <trkpt lat="29.5727184" lon="103.4241374"><ele>866.6</ele><time>2026-03-30T23:24:52.000Z</time></trkpt>
        <trkpt lat="29.5726728" lon="103.4242343"><ele>865.7</ele><time>2026-03-30T23:25:00.000Z</time></trkpt>
        <trkpt lat="29.572622" lon="103.4243219"><ele>864.49</ele><time>2026-03-30T23:25:08.000Z</time></trkpt>
        <trkpt lat="29.5725794" lon="103.4244186"><ele>863.78</ele><time>2026-03-30T23:25:16.000Z</time></trkpt>
        <trkpt lat="29.5725558" lon="103.4245235"><ele>863.89</ele><time>2026-03-30T23:25:24.000Z</time></trkpt>
        <trkpt lat="29.5725628" lon="103.4246322"><ele>863.78</ele><time>2026-03-30T23:25:32.000Z</time></trkpt>
        <trkpt lat="29.5726126" lon="103.4247149"><ele>865.75</ele><time>2026-03-30T23:25:42.000Z</time></trkpt>
        <trkpt lat="29.572638" lon="103.4248188"><ele>868.16</ele><time>2026-03-30T23:26:00.000Z</time></trkpt>
        <trkpt lat="29.5726153" lon="103.4249229"><ele>869.62</ele><time>2026-03-30T23:26:10.000Z</time></trkpt>
        <trkpt lat="29.5725917" lon="103.4249624"><ele>869.96</ele><time>2026-03-30T23:26:14.000Z</time></trkpt>
        <trkpt lat="29.5725869" lon="103.4250519"><ele>870.28</ele><time>2026-03-30T23:26:28.000Z</time></trkpt>
        <trkpt lat="29.5725984" lon="103.4251561"><ele>873.53</ele><time>2026-03-30T23:26:50.000Z</time></trkpt>
        <trkpt lat="29.572668" lon="103.4252103"><ele>877.81</ele><time>2026-03-30T23:27:14.000Z</time></trkpt>
        <trkpt lat="29.572735" lon="103.4252839"><ele>882.9</ele><time>2026-03-30T23:27:54.000Z</time></trkpt>
        <trkpt lat="29.5727223" lon="103.425375"><ele>886.5</ele><time>2026-03-30T23:28:22.000Z</time></trkpt>
        <trkpt lat="29.5726693" lon="103.4254788"><ele>892.67</ele><time>2026-03-30T23:28:30.000Z</time></trkpt>
        <trkpt lat="29.5726759" lon="103.4254253"><ele>895.82</ele><time>2026-03-30T23:28:40.000Z</time></trkpt>
        <trkpt lat="29.5727504" lon="103.4253802"><ele>896.56</ele><time>2026-03-30T23:28:48.000Z</time></trkpt>
        <trkpt lat="29.5728554" lon="103.425375"><ele>896.05</ele><time>2026-03-30T23:28:58.000Z</time></trkpt>
        <trkpt lat="29.5729543" lon="103.4254067"><ele>895.85</ele><time>2026-03-30T23:29:08.000Z</time></trkpt>
        <trkpt lat="29.5730418" lon="103.4254799"><ele>897.54</ele><time>2026-03-30T23:29:18.000Z</time></trkpt>
        <trkpt lat="29.5731112" lon="103.4255717"><ele>897.49</ele><time>2026-03-30T23:29:26.000Z</time></trkpt>
        <trkpt lat="29.5731814" lon="103.4256749"><ele>896.4</ele><time>2026-03-30T23:29:36.000Z</time></trkpt>
        <trkpt lat="29.5731888" lon="103.4257983"><ele>894.83</ele><time>2026-03-30T23:29:46.000Z</time></trkpt>
        <trkpt lat="29.573205" lon="103.4259096"><ele>892.79</ele><time>2026-03-30T23:29:54.000Z</time></trkpt>
        <trkpt lat="29.5732309" lon="103.426015"><ele>891.34</ele><time>2026-03-30T23:30:04.000Z</time></trkpt>
        <trkpt lat="29.573238" lon="103.4261302"><ele>889.7</ele><time>2026-03-30T23:30:14.000Z</time></trkpt>
        <trkpt lat="29.5732411" lon="103.4262374"><ele>889.64</ele><time>2026-03-30T23:30:26.000Z</time></trkpt>
        <trkpt lat="29.5732692" lon="103.4263407"><ele>889.87</ele><time>2026-03-30T23:30:46.000Z</time></trkpt>
        <trkpt lat="29.5732908" lon="103.4264472"><ele>892.13</ele><time>2026-03-30T23:31:00.000Z</time></trkpt>
        <trkpt lat="29.5732808" lon="103.4265633"><ele>894.76</ele><time>2026-03-30T23:31:12.000Z</time></trkpt>
        <trkpt lat="29.5733164" lon="103.4266798"><ele>895.85</ele><time>2026-03-30T23:31:20.000Z</time></trkpt>
        <trkpt lat="29.5733379" lon="103.4267936"><ele>897.56</ele><time>2026-03-30T23:31:34.000Z</time></trkpt>
        <trkpt lat="29.5733223" lon="103.4269032"><ele>899.17</ele><time>2026-03-30T23:31:48.000Z</time></trkpt>
        <trkpt lat="29.5732942" lon="103.427017"><ele>900.26</ele><time>2026-03-30T23:32:02.000Z</time></trkpt>
        <trkpt lat="29.5732545" lon="103.4271207"><ele>901.08</ele><time>2026-03-30T23:32:14.000Z</time></trkpt>
        <trkpt lat="29.5731859" lon="103.4271947"><ele>901.61</ele><time>2026-03-30T23:32:24.000Z</time></trkpt>
        <trkpt lat="29.5731291" lon="103.4272796"><ele>901.68</ele><time>2026-03-30T23:32:34.000Z</time></trkpt>
        <trkpt lat="29.5730642" lon="103.4273733"><ele>901.52</ele><time>2026-03-30T23:32:42.000Z</time></trkpt>
        <trkpt lat="29.5729998" lon="103.4274545"><ele>900.99</ele><time>2026-03-30T23:32:50.000Z</time></trkpt>
        <trkpt lat="29.5729402" lon="103.4275359"><ele>899.74</ele><time>2026-03-30T23:32:58.000Z</time></trkpt>
        <trkpt lat="29.5728934" lon="103.4275794"><ele>898.95</ele><time>2026-03-30T23:33:08.000Z</time></trkpt>
        <trkpt lat="29.5728196" lon="103.4276418"><ele>898.16</ele><time>2026-03-30T23:33:30.000Z</time></trkpt>
        <trkpt lat="29.5727641" lon="103.4277238"><ele>898.44</ele><time>2026-03-30T23:33:40.000Z</time></trkpt>
        <trkpt lat="29.5727101" lon="103.4278095"><ele>898.51</ele><time>2026-03-30T23:33:48.000Z</time></trkpt>
        <trkpt lat="29.5726389" lon="103.4278848"><ele>898.35</ele><time>2026-03-30T23:34:00.000Z</time></trkpt>
        <trkpt lat="29.5725591" lon="103.4279507"><ele>896.65</ele><time>2026-03-30T23:34:10.000Z</time></trkpt>
        <trkpt lat="29.572464" lon="103.4280064"><ele>895.14</ele><time>2026-03-30T23:34:20.000Z</time></trkpt>
        <trkpt lat="29.5724404" lon="103.4280163"><ele>895.24</ele><time>2026-03-30T23:34:24.000Z</time></trkpt>
        <trkpt lat="29.5723956" lon="103.4280832"><ele>895.28</ele><time>2026-03-30T23:34:36.000Z</time></trkpt>
        <trkpt lat="29.5723235" lon="103.4281518"><ele>894.46</ele><time>2026-03-30T23:34:44.000Z</time></trkpt>
        <trkpt lat="29.5722655" lon="103.4282463"><ele>895.06</ele><time>2026-03-30T23:34:56.000Z</time></trkpt>
        <trkpt lat="29.5721838" lon="103.4282999"><ele>895.84</ele><time>2026-03-30T23:35:06.000Z</time></trkpt>
        <trkpt lat="29.5721572" lon="103.4283113"><ele>895.67</ele><time>2026-03-30T23:35:08.000Z</time></trkpt>
        <trkpt lat="29.5720754" lon="103.4283123"><ele>895.55</ele><time>2026-03-30T23:35:38.000Z</time></trkpt>
        <trkpt lat="29.5719857" lon="103.4283362"><ele>896.29</ele><time>2026-03-30T23:35:46.000Z</time></trkpt>
        <trkpt lat="29.5719408" lon="103.4284248"><ele>896.57</ele><time>2026-03-30T23:36:22.000Z</time></trkpt>
        <trkpt lat="29.571948" lon="103.4285365"><ele>896.32</ele><time>2026-03-30T23:36:36.000Z</time></trkpt>
        <trkpt lat="29.5719825" lon="103.4286574"><ele>896.02</ele><time>2026-03-30T23:36:52.000Z</time></trkpt>
        <trkpt lat="29.5719452" lon="103.4287501"><ele>893.74</ele><time>2026-03-30T23:37:02.000Z</time></trkpt>
        <trkpt lat="29.5719095" lon="103.4287814"><ele>892.64</ele><time>2026-03-30T23:37:10.000Z</time></trkpt>
        <trkpt lat="29.5718399" lon="103.428842"><ele>890.35</ele><time>2026-03-30T23:37:28.000Z</time></trkpt>
        <trkpt lat="29.5717737" lon="103.4289165"><ele>891.85</ele><time>2026-03-30T23:37:40.000Z</time></trkpt>
        <trkpt lat="29.5717179" lon="103.4290109"><ele>891.2</ele><time>2026-03-30T23:38:00.000Z</time></trkpt>
        <trkpt lat="29.5716422" lon="103.4290689"><ele>888.12</ele><time>2026-03-30T23:38:16.000Z</time></trkpt>
        <trkpt lat="29.5716057" lon="103.4291543"><ele>883.56</ele><time>2026-03-30T23:38:34.000Z</time></trkpt>
        <trkpt lat="29.5715748" lon="103.4292645"><ele>880.68</ele><time>2026-03-30T23:38:44.000Z</time></trkpt>
        <trkpt lat="29.5715987" lon="103.429371"><ele>878.51</ele><time>2026-03-30T23:38:56.000Z</time></trkpt>
        <trkpt lat="29.5715981" lon="103.429462"><ele>875.84</ele><time>2026-03-30T23:39:06.000Z</time></trkpt>
        <trkpt lat="29.5715787" lon="103.4295697"><ele>873.19</ele><time>2026-03-30T23:39:34.000Z</time></trkpt>
        <trkpt lat="29.5715535" lon="103.4296783"><ele>870.43</ele><time>2026-03-30T23:39:48.000Z</time></trkpt>
        <trkpt lat="29.5715154" lon="103.4297771"><ele>866.67</ele><time>2026-03-30T23:40:04.000Z</time></trkpt>
        <trkpt lat="29.5714822" lon="103.4297946"><ele>864.45</ele><time>2026-03-30T23:40:10.000Z</time></trkpt>
        <trkpt lat="29.5714141" lon="103.4298478"><ele>863.36</ele><time>2026-03-30T23:41:28.000Z</time></trkpt>
        <trkpt lat="29.5713165" lon="103.4298707"><ele>860.6</ele><time>2026-03-30T23:41:54.000Z</time></trkpt>
        <trkpt lat="29.571272" lon="103.4299559"><ele>857.6</ele><time>2026-03-30T23:42:20.000Z</time></trkpt>
        <trkpt lat="29.5712486" lon="103.4300595"><ele>854.15</ele><time>2026-03-30T23:42:36.000Z</time></trkpt>
        <trkpt lat="29.571183" lon="103.4301272"><ele>851.67</ele><time>2026-03-30T23:42:58.000Z</time></trkpt>
        <trkpt lat="29.5711253" lon="103.4302089"><ele>851.16</ele><time>2026-03-30T23:43:36.000Z</time></trkpt>
        <trkpt lat="29.5711167" lon="103.4303084"><ele>846.2</ele><time>2026-03-30T23:43:52.000Z</time></trkpt>
        <trkpt lat="29.5711844" lon="103.4303647"><ele>842.76</ele><time>2026-03-30T23:44:16.000Z</time></trkpt>
        <trkpt lat="29.5712393" lon="103.4304304"><ele>838.34</ele><time>2026-03-30T23:44:36.000Z</time></trkpt>
        <trkpt lat="29.5712613" lon="103.4305354"><ele>832.92</ele><time>2026-03-30T23:46:00.000Z</time></trkpt>
        <trkpt lat="29.5711856" lon="103.4305989"><ele>824.27</ele><time>2026-03-30T23:47:16.000Z</time></trkpt>
        <trkpt lat="29.5711948" lon="103.4307073"><ele>820.41</ele><time>2026-03-30T23:47:54.000Z</time></trkpt>
        <trkpt lat="29.5711571" lon="103.430799"><ele>814.24</ele><time>2026-03-30T23:48:28.000Z</time></trkpt>
        <trkpt lat="29.5711103" lon="103.4308996"><ele>807.28</ele><time>2026-03-30T23:48:56.000Z</time></trkpt>
        <trkpt lat="29.5711152" lon="103.4310079"><ele>803.32</ele><time>2026-03-30T23:49:14.000Z</time></trkpt>
        <trkpt lat="29.5710893" lon="103.4311075"><ele>798.78</ele><time>2026-03-30T23:49:52.000Z</time></trkpt>
        <trkpt lat="29.5710903" lon="103.4312128"><ele>792.34</ele><time>2026-03-30T23:50:12.000Z</time></trkpt>
        <trkpt lat="29.5710483" lon="103.4313044"><ele>784.95</ele><time>2026-03-30T23:50:26.000Z</time></trkpt>
        <trkpt lat="29.5709851" lon="103.4313877"><ele>779.9</ele><time>2026-03-30T23:50:58.000Z</time></trkpt>
        <trkpt lat="29.5709006" lon="103.4314479"><ele>773.47</ele><time>2026-03-30T23:51:36.000Z</time></trkpt>
        <trkpt lat="29.5708929" lon="103.4315434"><ele>771.58</ele><time>2026-03-30T23:51:50.000Z</time></trkpt>
        <trkpt lat="29.5709283" lon="103.4316406"><ele>769.96</ele><time>2026-03-30T23:52:14.000Z</time></trkpt>
        <trkpt lat="29.5709473" lon="103.4317493"><ele>765.11</ele><time>2026-03-30T23:52:28.000Z</time></trkpt>
        <trkpt lat="29.5708939" lon="103.4318233"><ele>762.43</ele><time>2026-03-30T23:52:48.000Z</time></trkpt>
        <trkpt lat="29.5708808" lon="103.4319223"><ele>761.54</ele><time>2026-03-30T23:53:10.000Z</time></trkpt>
        <trkpt lat="29.5708934" lon="103.4320345"><ele>757.31</ele><time>2026-03-30T23:53:22.000Z</time></trkpt>
        <trkpt lat="29.5708916" lon="103.4321452"><ele>753.14</ele><time>2026-03-30T23:53:36.000Z</time></trkpt>
        <trkpt lat="29.5708855" lon="103.4322516"><ele>749.3</ele><time>2026-03-30T23:53:50.000Z</time></trkpt>
        <trkpt lat="29.5708918" lon="103.4323588"><ele>745.64</ele><time>2026-03-30T23:54:08.000Z</time></trkpt>
        <trkpt lat="29.5708777" lon="103.4324664"><ele>740.09</ele><time>2026-03-30T23:54:24.000Z</time></trkpt>
        <trkpt lat="29.5708112" lon="103.4325457"><ele>734.86</ele><time>2026-03-30T23:54:38.000Z</time></trkpt>
        <trkpt lat="29.5707674" lon="103.4326498"><ele>730.65</ele><time>2026-03-30T23:54:48.000Z</time></trkpt>
        <trkpt lat="29.570718" lon="103.4327699"><ele>727.14</ele><time>2026-03-30T23:54:56.000Z</time></trkpt>
        <trkpt lat="29.5707126" lon="103.4328007"><ele>724.49</ele><time>2026-03-30T23:54:58.000Z</time></trkpt>
        <trkpt lat="29.5707079" lon="103.4328886"><ele>721.76</ele><time>2026-03-30T23:55:18.000Z</time></trkpt>
        <trkpt lat="29.5706944" lon="103.4329881"><ele>721.96</ele><time>2026-03-30T23:55:28.000Z</time></trkpt>
        <trkpt lat="29.5706337" lon="103.4330766"><ele>720.57</ele><time>2026-03-30T23:55:44.000Z</time></trkpt>
        <trkpt lat="29.5705781" lon="103.4331662"><ele>718.14</ele><time>2026-03-30T23:56:06.000Z</time></trkpt>
        <trkpt lat="29.5705029" lon="103.4331397"><ele>715</ele><time>2026-03-30T23:56:16.000Z</time></trkpt>
        <trkpt lat="29.5704055" lon="103.4331645"><ele>713.35</ele><time>2026-03-30T23:56:26.000Z</time></trkpt>
        <trkpt lat="29.5703311" lon="103.4331116"><ele>712.67</ele><time>2026-03-30T23:56:34.000Z</time></trkpt>
        <trkpt lat="29.5702558" lon="103.4330391"><ele>712.46</ele><time>2026-03-30T23:56:44.000Z</time></trkpt>
        <trkpt lat="29.5701585" lon="103.4330025"><ele>709.93</ele><time>2026-03-30T23:56:56.000Z</time></trkpt>
        <trkpt lat="29.5702005" lon="103.4329832"><ele>706.89</ele><time>2026-03-30T23:57:56.000Z</time></trkpt>
        <trkpt lat="29.5702771" lon="103.4330354"><ele>707.89</ele><time>2026-03-30T23:58:06.000Z</time></trkpt>
        <trkpt lat="29.5702837" lon="103.4331424"><ele>707.13</ele><time>2026-03-30T23:58:42.000Z</time></trkpt>
        <trkpt lat="29.570267" lon="103.4332645"><ele>705.01</ele><time>2026-03-30T23:59:00.000Z</time></trkpt>
        <trkpt lat="29.5702118" lon="103.4333691"><ele>702.17</ele><time>2026-03-30T23:59:48.000Z</time></trkpt>
        <trkpt lat="29.5701713" lon="103.4334722"><ele>699.04</ele><time>2026-03-31T00:00:02.000Z</time></trkpt>
        <trkpt lat="29.5701377" lon="103.4335773"><ele>697.14</ele><time>2026-03-31T00:00:16.000Z</time></trkpt>
        <trkpt lat="29.5700624" lon="103.433625"><ele>695.47</ele><time>2026-03-31T00:00:30.000Z</time></trkpt>
        <trkpt lat="29.5699745" lon="103.4336582"><ele>692.99</ele><time>2026-03-31T00:00:46.000Z</time></trkpt>
        <trkpt lat="29.570019" lon="103.4336209"><ele>690.21</ele><time>2026-03-31T00:01:42.000Z</time></trkpt>
        <trkpt lat="29.5701169" lon="103.4335765"><ele>688.49</ele><time>2026-03-31T00:01:52.000Z</time></trkpt>
        <trkpt lat="29.5702336" lon="103.4335617"><ele>687.07</ele><time>2026-03-31T00:02:02.000Z</time></trkpt>
        <trkpt lat="29.5703464" lon="103.4335838"><ele>685.94</ele><time>2026-03-31T00:02:14.000Z</time></trkpt>
        <trkpt lat="29.5704488" lon="103.4336137"><ele>687.96</ele><time>2026-03-31T00:02:40.000Z</time></trkpt>
        <trkpt lat="29.570538" lon="103.4336597"><ele>689.16</ele><time>2026-03-31T00:02:52.000Z</time></trkpt>
        <trkpt lat="29.5706208" lon="103.4337268"><ele>690.08</ele><time>2026-03-31T00:03:06.000Z</time></trkpt>
        <trkpt lat="29.5707032" lon="103.4337844"><ele>690.2</ele><time>2026-03-31T00:03:18.000Z</time></trkpt>
        <trkpt lat="29.5707961" lon="103.433834"><ele>691.49</ele><time>2026-03-31T00:03:28.000Z</time></trkpt>
        <trkpt lat="29.5708875" lon="103.4338392"><ele>693.78</ele><time>2026-03-31T00:03:38.000Z</time></trkpt>
        <trkpt lat="29.5709271" lon="103.4338184"><ele>694.99</ele><time>2026-03-31T00:03:46.000Z</time></trkpt>
        <trkpt lat="29.5709049" lon="103.4338969"><ele>695.33</ele><time>2026-03-31T00:04:16.000Z</time></trkpt>
        <trkpt lat="29.5708363" lon="103.433998"><ele>694.75</ele><time>2026-03-31T00:04:26.000Z</time></trkpt>
        <trkpt lat="29.5707872" lon="103.4341098"><ele>693.56</ele><time>2026-03-31T00:04:34.000Z</time></trkpt>
        <trkpt lat="29.570726" lon="103.434215"><ele>692.43</ele><time>2026-03-31T00:04:42.000Z</time></trkpt>
        <trkpt lat="29.5706926" lon="103.4343219"><ele>691.86</ele><time>2026-03-31T00:04:56.000Z</time></trkpt>
        <trkpt lat="29.5706579" lon="103.4344298"><ele>691.41</ele><time>2026-03-31T00:05:06.000Z</time></trkpt>
        <trkpt lat="29.5705972" lon="103.4345168"><ele>689.75</ele><time>2026-03-31T00:05:16.000Z</time></trkpt>
        <trkpt lat="29.5705167" lon="103.4345817"><ele>688.12</ele><time>2026-03-31T00:05:24.000Z</time></trkpt>
        <trkpt lat="29.570447" lon="103.4346718"><ele>688.43</ele><time>2026-03-31T00:05:32.000Z</time></trkpt>
        <trkpt lat="29.5704073" lon="103.4347799"><ele>687.64</ele><time>2026-03-31T00:05:42.000Z</time></trkpt>
        <trkpt lat="29.5703281" lon="103.434802"><ele>686.31</ele><time>2026-03-31T00:05:52.000Z</time></trkpt>
        <trkpt lat="29.5702282" lon="103.4348293"><ele>684.55</ele><time>2026-03-31T00:06:02.000Z</time></trkpt>
        <trkpt lat="29.5701214" lon="103.4348404"><ele>686.1</ele><time>2026-03-31T00:06:10.000Z</time></trkpt>
        <trkpt lat="29.5700202" lon="103.4348632"><ele>687.15</ele><time>2026-03-31T00:06:18.000Z</time></trkpt>
        <trkpt lat="29.5699109" lon="103.4348951"><ele>688.06</ele><time>2026-03-31T00:06:28.000Z</time></trkpt>
        <trkpt lat="29.5698085" lon="103.4349182"><ele>690.26</ele><time>2026-03-31T00:06:40.000Z</time></trkpt>
        <trkpt lat="29.5697159" lon="103.434949"><ele>690.44</ele><time>2026-03-31T00:06:50.000Z</time></trkpt>
        <trkpt lat="29.5696251" lon="103.4349616"><ele>689.27</ele><time>2026-03-31T00:07:14.000Z</time></trkpt>
        <trkpt lat="29.5695316" lon="103.4349497"><ele>688.84</ele><time>2026-03-31T00:07:24.000Z</time></trkpt>
        <trkpt lat="29.5694308" lon="103.4349439"><ele>686.27</ele><time>2026-03-31T00:07:34.000Z</time></trkpt>
        <trkpt lat="29.5693431" lon="103.4349736"><ele>683.22</ele><time>2026-03-31T00:07:44.000Z</time></trkpt>
        <trkpt lat="29.5692525" lon="103.4349917"><ele>680.57</ele><time>2026-03-31T00:07:54.000Z</time></trkpt>
        <trkpt lat="29.5691614" lon="103.4349993"><ele>678.45</ele><time>2026-03-31T00:08:04.000Z</time></trkpt>
        <trkpt lat="29.5691096" lon="103.4350728"><ele>676.89</ele><time>2026-03-31T00:08:30.000Z</time></trkpt>
        <trkpt lat="29.5690435" lon="103.4351409"><ele>676.49</ele><time>2026-03-31T00:08:40.000Z</time></trkpt>
        <trkpt lat="29.5689936" lon="103.4352387"><ele>676.66</ele><time>2026-03-31T00:08:54.000Z</time></trkpt>
        <trkpt lat="29.568925" lon="103.4353176"><ele>675.65</ele><time>2026-03-31T00:09:10.000Z</time></trkpt>
        <trkpt lat="29.5688336" lon="103.4353309"><ele>673.78</ele><time>2026-03-31T00:09:20.000Z</time></trkpt>
        <trkpt lat="29.5687522" lon="103.4352768"><ele>671.96</ele><time>2026-03-31T00:09:40.000Z</time></trkpt>
        <trkpt lat="29.5686623" lon="103.4352495"><ele>667.69</ele><time>2026-03-31T00:09:54.000Z</time></trkpt>
        <trkpt lat="29.5685669" lon="103.4352723"><ele>663.04</ele><time>2026-03-31T00:10:04.000Z</time></trkpt>
        <trkpt lat="29.5684788" lon="103.4353119"><ele>661.38</ele><time>2026-03-31T00:10:12.000Z</time></trkpt>
        <trkpt lat="29.5683766" lon="103.4353301"><ele>661.23</ele><time>2026-03-31T00:10:24.000Z</time></trkpt>
        <trkpt lat="29.5682736" lon="103.4353415"><ele>659.36</ele><time>2026-03-31T00:10:36.000Z</time></trkpt>
        <trkpt lat="29.5681677" lon="103.4353402"><ele>656.77</ele><time>2026-03-31T00:10:46.000Z</time></trkpt>
        <trkpt lat="29.5680707" lon="103.4353184"><ele>653.66</ele><time>2026-03-31T00:10:58.000Z</time></trkpt>
        <trkpt lat="29.5679849" lon="103.4352702"><ele>650.8</ele><time>2026-03-31T00:11:14.000Z</time></trkpt>
        <trkpt lat="29.5678965" lon="103.43523"><ele>648.4</ele><time>2026-03-31T00:11:32.000Z</time></trkpt>
        <trkpt lat="29.5678091" lon="103.4352351"><ele>645.3</ele><time>2026-03-31T00:11:42.000Z</time></trkpt>
        <trkpt lat="29.5677239" lon="103.4352672"><ele>643.04</ele><time>2026-03-31T00:12:14.000Z</time></trkpt>
        <trkpt lat="29.5676349" lon="103.4353168"><ele>640.33</ele><time>2026-03-31T00:12:38.000Z</time></trkpt>
        <trkpt lat="29.5675431" lon="103.4353262"><ele>637.16</ele><time>2026-03-31T00:12:50.000Z</time></trkpt>
        <trkpt lat="29.5674508" lon="103.4353305"><ele>635.15</ele><time>2026-03-31T00:13:08.000Z</time></trkpt>
        <trkpt lat="29.5673588" lon="103.435312"><ele>631.79</ele><time>2026-03-31T00:13:30.000Z</time></trkpt>
        <trkpt lat="29.5674318" lon="103.4353692"><ele>626.8</ele><time>2026-03-31T00:15:42.000Z</time></trkpt>
        <trkpt lat="29.5674523" lon="103.4354752"><ele>622.56</ele><time>2026-03-31T00:16:42.000Z</time></trkpt>
        <trkpt lat="29.5674959" lon="103.4355746"><ele>620.11</ele><time>2026-03-31T00:17:38.000Z</time></trkpt>
        <trkpt lat="29.5674974" lon="103.4356776"><ele>617.76</ele><time>2026-03-31T00:17:50.000Z</time></trkpt>
        <trkpt lat="29.5674289" lon="103.4356744"><ele>616.48</ele><time>2026-03-31T00:18:22.000Z</time></trkpt>
        <trkpt lat="29.5673431" lon="103.4357168"><ele>615.42</ele><time>2026-03-31T00:18:36.000Z</time></trkpt>
        <trkpt lat="29.5672994" lon="103.4358174"><ele>616.11</ele><time>2026-03-31T00:19:42.000Z</time></trkpt>
        <trkpt lat="29.567253" lon="103.4359156"><ele>608.33</ele><time>2026-03-31T00:20:00.000Z</time></trkpt>
        <trkpt lat="29.56717" lon="103.4359755"><ele>603.33</ele><time>2026-03-31T00:20:34.000Z</time></trkpt>
        <trkpt lat="29.5670829" lon="103.4359629"><ele>599.42</ele><time>2026-03-31T00:21:08.000Z</time></trkpt>
        <trkpt lat="29.5670477" lon="103.4360285"><ele>591.15</ele><time>2026-03-31T00:21:34.000Z</time></trkpt>
        <trkpt lat="29.5670266" lon="103.4361245"><ele>585.43</ele><time>2026-03-31T00:21:52.000Z</time></trkpt>
        <trkpt lat="29.5669629" lon="103.4361954"><ele>583.67</ele><time>2026-03-31T00:22:16.000Z</time></trkpt>
        <trkpt lat="29.5668867" lon="103.4362592"><ele>584.88</ele><time>2026-03-31T00:22:40.000Z</time></trkpt>
        <trkpt lat="29.566924" lon="103.4363292"><ele>585.32</ele><time>2026-03-31T00:23:30.000Z</time></trkpt>
        <trkpt lat="29.5668872" lon="103.4363977"><ele>578.73</ele><time>2026-03-31T00:23:54.000Z</time></trkpt>
        <trkpt lat="29.566942" lon="103.4364367"><ele>575.45</ele><time>2026-03-31T00:24:40.000Z</time></trkpt>
        <trkpt lat="29.5669494" lon="103.4365257"><ele>572.19</ele><time>2026-03-31T00:25:40.000Z</time></trkpt>
        <trkpt lat="29.5669428" lon="103.4366298"><ele>567.95</ele><time>2026-03-31T00:25:56.000Z</time></trkpt>
        <trkpt lat="29.5669242" lon="103.4367431"><ele>565.17</ele><time>2026-03-31T00:26:56.000Z</time></trkpt>
        <trkpt lat="29.5668763" lon="103.4368359"><ele>563.16</ele><time>2026-03-31T00:27:58.000Z</time></trkpt>
        <trkpt lat="29.5668646" lon="103.4369388"><ele>560.29</ele><time>2026-03-31T00:29:04.000Z</time></trkpt>
        <trkpt lat="29.5667868" lon="103.4370103"><ele>557.8</ele><time>2026-03-31T00:29:46.000Z</time></trkpt>
        <trkpt lat="29.5667073" lon="103.4370663"><ele>556.19</ele><time>2026-03-31T00:30:18.000Z</time></trkpt>
        <trkpt lat="29.5667417" lon="103.4371313"><ele>556.43</ele><time>2026-03-31T00:31:02.000Z</time></trkpt>
        <trkpt lat="29.566812" lon="103.4372007"><ele>547.17</ele><time>2026-03-31T00:31:12.000Z</time></trkpt>
        <trkpt lat="29.5668909" lon="103.4372797"><ele>538.83</ele><time>2026-03-31T00:31:22.000Z</time></trkpt>
        <trkpt lat="29.5669812" lon="103.4373379"><ele>533.05</ele><time>2026-03-31T00:31:34.000Z</time></trkpt>
        <trkpt lat="29.5669899" lon="103.4374262"><ele>527.41</ele><time>2026-03-31T00:31:56.000Z</time></trkpt>
        <trkpt lat="29.5670263" lon="103.4375274"><ele>524.61</ele><time>2026-03-31T00:32:04.000Z</time></trkpt>
        <trkpt lat="29.5670738" lon="103.4376348"><ele>522.64</ele><time>2026-03-31T00:32:12.000Z</time></trkpt>
        <trkpt lat="29.5671212" lon="103.4377435"><ele>522.07</ele><time>2026-03-31T00:32:20.000Z</time></trkpt>
        <trkpt lat="29.5671842" lon="103.4378242"><ele>521.85</ele><time>2026-03-31T00:32:30.000Z</time></trkpt>
        <trkpt lat="29.5672516" lon="103.4379004"><ele>520.44</ele><time>2026-03-31T00:32:38.000Z</time></trkpt>
        <trkpt lat="29.5673125" lon="103.4379787"><ele>519.74</ele><time>2026-03-31T00:32:46.000Z</time></trkpt>
        <trkpt lat="29.5673722" lon="103.4380715"><ele>518.24</ele><time>2026-03-31T00:32:56.000Z</time></trkpt>
        <trkpt lat="29.5674371" lon="103.4381763"><ele>516.59</ele><time>2026-03-31T00:33:06.000Z</time></trkpt>
        <trkpt lat="29.5674851" lon="103.4382812"><ele>515.31</ele><time>2026-03-31T00:33:14.000Z</time></trkpt>
        <trkpt lat="29.5675419" lon="103.4383881"><ele>515.48</ele><time>2026-03-31T00:33:24.000Z</time></trkpt>
        <trkpt lat="29.5676183" lon="103.4384699"><ele>516.07</ele><time>2026-03-31T00:33:32.000Z</time></trkpt>
        <trkpt lat="29.5676994" lon="103.4385452"><ele>515.34</ele><time>2026-03-31T00:33:38.000Z</time></trkpt>
        <trkpt lat="29.5677732" lon="103.4386216"><ele>513.32</ele><time>2026-03-31T00:33:46.000Z</time></trkpt>
        <trkpt lat="29.567834" lon="103.438716"><ele>513.5</ele><time>2026-03-31T00:33:56.000Z</time></trkpt>
        <trkpt lat="29.5678791" lon="103.4388124"><ele>514.03</ele><time>2026-03-31T00:34:04.000Z</time></trkpt>
        <trkpt lat="29.5679408" lon="103.4389123"><ele>514.79</ele><time>2026-03-31T00:34:12.000Z</time></trkpt>
        <trkpt lat="29.5680115" lon="103.4389883"><ele>515.44</ele><time>2026-03-31T00:34:22.000Z</time></trkpt>
        <trkpt lat="29.568083" lon="103.4390551"><ele>514.65</ele><time>2026-03-31T00:34:30.000Z</time></trkpt>
        <trkpt lat="29.5681479" lon="103.4391427"><ele>513.26</ele><time>2026-03-31T00:34:42.000Z</time></trkpt>
        <trkpt lat="29.5682129" lon="103.4392411"><ele>512.44</ele><time>2026-03-31T00:34:52.000Z</time></trkpt>
        <trkpt lat="29.5682961" lon="103.4392909"><ele>512.32</ele><time>2026-03-31T00:35:02.000Z</time></trkpt>
        <trkpt lat="29.5683737" lon="103.4393648"><ele>511.22</ele><time>2026-03-31T00:35:10.000Z</time></trkpt>
        <trkpt lat="29.5684627" lon="103.4394237"><ele>510.84</ele><time>2026-03-31T00:35:18.000Z</time></trkpt>
        <trkpt lat="29.5685368" lon="103.4394915"><ele>508.75</ele><time>2026-03-31T00:35:28.000Z</time></trkpt>
        <trkpt lat="29.5686303" lon="103.4395408"><ele>507.21</ele><time>2026-03-31T00:35:36.000Z</time></trkpt>
        <trkpt lat="29.5686853" lon="103.4396308"><ele>505.59</ele><time>2026-03-31T00:35:44.000Z</time></trkpt>
        <trkpt lat="29.5687347" lon="103.4397323"><ele>505.61</ele><time>2026-03-31T00:35:54.000Z</time></trkpt>
        <trkpt lat="29.5687874" lon="103.4398405"><ele>506.66</ele><time>2026-03-31T00:36:04.000Z</time></trkpt>
        <trkpt lat="29.5688613" lon="103.4399244"><ele>506.51</ele><time>2026-03-31T00:36:14.000Z</time></trkpt>
        <trkpt lat="29.5689314" lon="103.440022"><ele>504.96</ele><time>2026-03-31T00:36:24.000Z</time></trkpt>
        <trkpt lat="29.5690025" lon="103.4401159"><ele>502.46</ele><time>2026-03-31T00:36:34.000Z</time></trkpt>
        <trkpt lat="29.5690677" lon="103.4402027"><ele>500.98</ele><time>2026-03-31T00:36:42.000Z</time></trkpt>
        <trkpt lat="29.5691067" lon="103.4402542"><ele>500.13</ele><time>2026-03-31T00:36:48.000Z</time></trkpt>
        <trkpt lat="29.5691242" lon="103.4403528"><ele>499.54</ele><time>2026-03-31T00:36:58.000Z</time></trkpt>
        <trkpt lat="29.5691242" lon="103.4404703"><ele>498.94</ele><time>2026-03-31T00:37:06.000Z</time></trkpt>
        <trkpt lat="29.5691215" lon="103.4405902"><ele>498.53</ele><time>2026-03-31T00:37:14.000Z</time></trkpt>
        <trkpt lat="29.5691666" lon="103.4406766"><ele>498.11</ele><time>2026-03-31T00:37:22.000Z</time></trkpt>
        <trkpt lat="29.5692545" lon="103.4407291"><ele>497.62</ele><time>2026-03-31T00:37:32.000Z</time></trkpt>
        <trkpt lat="29.5693128" lon="103.4408181"><ele>496.57</ele><time>2026-03-31T00:37:42.000Z</time></trkpt>
        <trkpt lat="29.5693934" lon="103.4408883"><ele>495.3</ele><time>2026-03-31T00:37:52.000Z</time></trkpt>
        <trkpt lat="29.5694638" lon="103.4409645"><ele>494.5</ele><time>2026-03-31T00:38:16.000Z</time></trkpt>
        <trkpt lat="29.5695564" lon="103.4409753"><ele>496.82</ele><time>2026-03-31T00:38:26.000Z</time></trkpt>
        <trkpt lat="29.5696717" lon="103.4409696"><ele>499.28</ele><time>2026-03-31T00:38:34.000Z</time></trkpt>
        <trkpt lat="29.5697774" lon="103.4409965"><ele>500.09</ele><time>2026-03-31T00:38:40.000Z</time></trkpt>
        <trkpt lat="29.5698817" lon="103.4410151"><ele>500.02</ele><time>2026-03-31T00:38:50.000Z</time></trkpt>
        <trkpt lat="29.5699922" lon="103.4410413"><ele>500.8</ele><time>2026-03-31T00:39:00.000Z</time></trkpt>
        <trkpt lat="29.5700969" lon="103.4410731"><ele>501.51</ele><time>2026-03-31T00:39:08.000Z</time></trkpt>
        <trkpt lat="29.5701927" lon="103.4411141"><ele>502.42</ele><time>2026-03-31T00:39:16.000Z</time></trkpt>
        <trkpt lat="29.5702732" lon="103.4411784"><ele>502.59</ele><time>2026-03-31T00:39:24.000Z</time></trkpt>
        <trkpt lat="29.5703518" lon="103.4412377"><ele>502.23</ele><time>2026-03-31T00:39:32.000Z</time></trkpt>
        <trkpt lat="29.5704271" lon="103.4413146"><ele>502.15</ele><time>2026-03-31T00:39:42.000Z</time></trkpt>
        <trkpt lat="29.5705137" lon="103.4413873"><ele>500.68</ele><time>2026-03-31T00:39:50.000Z</time></trkpt>
        <trkpt lat="29.5705931" lon="103.4414611"><ele>500.9</ele><time>2026-03-31T00:40:00.000Z</time></trkpt>
        <trkpt lat="29.5706808" lon="103.4414963"><ele>501.54</ele><time>2026-03-31T00:40:10.000Z</time></trkpt>
        <trkpt lat="29.5707207" lon="103.4414181"><ele>501.18</ele><time>2026-03-31T00:40:24.000Z</time></trkpt>
        <trkpt lat="29.5706986" lon="103.4413289"><ele>500.12</ele><time>2026-03-31T00:40:34.000Z</time></trkpt>
        <trkpt lat="29.5707429" lon="103.4412494"><ele>499.4</ele><time>2026-03-31T00:40:46.000Z</time></trkpt>
        <trkpt lat="29.5707564" lon="103.4412048"><ele>497.86</ele><time>2026-03-31T00:40:52.000Z</time></trkpt>
        <trkpt lat="29.5706922" lon="103.4411745"><ele>496.99</ele><time>2026-03-31T00:41:34.000Z</time></trkpt>
        <trkpt lat="29.570698" lon="103.4410925"><ele>497.33</ele><time>2026-03-31T00:41:52.000Z</time></trkpt>
        <trkpt lat="29.5706871" lon="103.4409874"><ele>498.98</ele><time>2026-03-31T00:42:02.000Z</time></trkpt>
        <trkpt lat="29.5707004" lon="103.4409023"><ele>500.51</ele><time>2026-03-31T00:42:14.000Z</time></trkpt>
        <trkpt lat="29.5706375" lon="103.4409021"><ele>500.18</ele><time>2026-03-31T00:42:34.000Z</time></trkpt>
        <trkpt lat="29.5705431" lon="103.4409578"><ele>501.07</ele><time>2026-03-31T00:42:42.000Z</time></trkpt>
        <trkpt lat="29.5704399" lon="103.4409608"><ele>502.55</ele><time>2026-03-31T00:42:52.000Z</time></trkpt>
        <trkpt lat="29.5703393" lon="103.4409264"><ele>502.73</ele><time>2026-03-31T00:43:00.000Z</time></trkpt>
        <trkpt lat="29.570358" lon="103.4408969"><ele>502.11</ele><time>2026-03-31T00:43:10.000Z</time></trkpt>
        <trkpt lat="29.5704758" lon="103.4409591"><ele>500.65</ele><time>2026-03-31T00:45:24.000Z</time></trkpt>
        <trkpt lat="29.5704995" lon="103.441072"><ele>497.84</ele><time>2026-03-31T00:45:32.000Z</time></trkpt>
        <trkpt lat="29.5705909" lon="103.4411309"><ele>498</ele><time>2026-03-31T00:45:48.000Z</time></trkpt>
        <trkpt lat="29.5706937" lon="103.4411159"><ele>496.7</ele><time>2026-03-31T00:45:56.000Z</time></trkpt>
        <trkpt lat="29.5707858" lon="103.4411517"><ele>496.06</ele><time>2026-03-31T00:46:04.000Z</time></trkpt>
        <trkpt lat="29.5708219" lon="103.4412438"><ele>494.8</ele><time>2026-03-31T00:46:12.000Z</time></trkpt>
        <trkpt lat="29.5708557" lon="103.4413495"><ele>493.94</ele><time>2026-03-31T00:46:20.000Z</time></trkpt>
        <trkpt lat="29.5709064" lon="103.4414407"><ele>495.16</ele><time>2026-03-31T00:46:28.000Z</time></trkpt>
        <trkpt lat="29.570982" lon="103.4414984"><ele>495.29</ele><time>2026-03-31T00:46:36.000Z</time></trkpt>
        <trkpt lat="29.5710628" lon="103.4415568"><ele>496.16</ele><time>2026-03-31T00:46:44.000Z</time></trkpt>
        <trkpt lat="29.5710868" lon="103.4416611"><ele>496.99</ele><time>2026-03-31T00:46:52.000Z</time></trkpt>
        <trkpt lat="29.5711002" lon="103.4417711"><ele>498.44</ele><time>2026-03-31T00:47:00.000Z</time></trkpt>
        <trkpt lat="29.5711252" lon="103.4418765"><ele>500.32</ele><time>2026-03-31T00:47:08.000Z</time></trkpt>
        <trkpt lat="29.5711851" lon="103.4419497"><ele>499.56</ele><time>2026-03-31T00:47:16.000Z</time></trkpt>
        <trkpt lat="29.5712669" lon="103.4419337"><ele>499.82</ele><time>2026-03-31T00:47:40.000Z</time></trkpt>
        <trkpt lat="29.5712935" lon="103.4419271"><ele>500.21</ele><time>2026-03-31T00:47:52.000Z</time></trkpt>
        <trkpt lat="29.571034" lon="103.4418834"><ele>500.45</ele><time>2026-03-31T00:50:08.000Z</time></trkpt>
        <trkpt lat="29.5710277" lon="103.4418337"><ele>500.34</ele><time>2026-03-31T00:50:11.000Z</time></trkpt>
        <trkpt lat="29.570919" lon="103.4418206"><ele>498.89</ele><time>2026-03-31T00:50:31.000Z</time></trkpt>
        <trkpt lat="29.5708183" lon="103.4418732"><ele>499.91</ele><time>2026-03-31T00:50:43.000Z</time></trkpt>
        <trkpt lat="29.5707192" lon="103.4418741"><ele>501.27</ele><time>2026-03-31T00:50:55.000Z</time></trkpt>
        <trkpt lat="29.5707874" lon="103.4418914"><ele>501.38</ele><time>2026-03-31T00:51:43.000Z</time></trkpt>
        <trkpt lat="29.570901" lon="103.4418801"><ele>498.77</ele><time>2026-03-31T00:51:53.000Z</time></trkpt>
        <trkpt lat="29.5710189" lon="103.4418674"><ele>497.57</ele><time>2026-03-31T00:52:03.000Z</time></trkpt>
        <trkpt lat="29.5711216" lon="103.441913"><ele>496.84</ele><time>2026-03-31T00:52:13.000Z</time></trkpt>
        <trkpt lat="29.5711983" lon="103.4419843"><ele>496.44</ele><time>2026-03-31T00:52:21.000Z</time></trkpt>
        <trkpt lat="29.5712715" lon="103.4420758"><ele>497.47</ele><time>2026-03-31T00:52:31.000Z</time></trkpt>
        <trkpt lat="29.5712838" lon="103.4421823"><ele>497.64</ele><time>2026-03-31T00:52:51.000Z</time></trkpt>
        <trkpt lat="29.5713191" lon="103.4422869"><ele>499.6</ele><time>2026-03-31T00:53:01.000Z</time></trkpt>
        <trkpt lat="29.5713251" lon="103.4423945"><ele>500.04</ele><time>2026-03-31T00:53:11.000Z</time></trkpt>
        <trkpt lat="29.5713847" lon="103.4424652"><ele>499.08</ele><time>2026-03-31T00:53:21.000Z</time></trkpt>
        <trkpt lat="29.5713548" lon="103.442417"><ele>499.73</ele><time>2026-03-31T00:53:31.000Z</time></trkpt>
        <trkpt lat="29.5713053" lon="103.4423069"><ele>499.82</ele><time>2026-03-31T00:53:41.000Z</time></trkpt>
        <trkpt lat="29.5712948" lon="103.4421767"><ele>500.89</ele><time>2026-03-31T00:53:53.000Z</time></trkpt>
        <trkpt lat="29.5713369" lon="103.4420579"><ele>500.15</ele><time>2026-03-31T00:54:01.000Z</time></trkpt>
        <trkpt lat="29.5713046" lon="103.4419588"><ele>500.34</ele><time>2026-03-31T00:54:11.000Z</time></trkpt>
        <trkpt lat="29.5712284" lon="103.4419058"><ele>502.89</ele><time>2026-03-31T00:54:19.000Z</time></trkpt>
        <trkpt lat="29.5711197" lon="103.4418907"><ele>504.85</ele><time>2026-03-31T00:54:23.000Z</time></trkpt>
        <trkpt lat="29.5710175" lon="103.4418563"><ele>503.6</ele><time>2026-03-31T00:54:33.000Z</time></trkpt>
        <trkpt lat="29.5709125" lon="103.4418338"><ele>502.65</ele><time>2026-03-31T00:54:45.000Z</time></trkpt>
        <trkpt lat="29.5708055" lon="103.4418405"><ele>502.14</ele><time>2026-03-31T00:54:53.000Z</time></trkpt>
        <trkpt lat="29.5707207" lon="103.441909"><ele>502.54</ele><time>2026-03-31T00:55:03.000Z</time></trkpt>
        <trkpt lat="29.57067" lon="103.4420096"><ele>502.19</ele><time>2026-03-31T00:55:11.000Z</time></trkpt>
        <trkpt lat="29.5706654" lon="103.4420609"><ele>502.23</ele><time>2026-03-31T00:55:17.000Z</time></trkpt>
        <trkpt lat="29.5706193" lon="103.442124"><ele>502.1</ele><time>2026-03-31T00:55:39.000Z</time></trkpt>
        <trkpt lat="29.5705971" lon="103.442179"><ele>502.08</ele><time>2026-03-31T00:55:45.000Z</time></trkpt>
        <trkpt lat="29.570564" lon="103.4421181"><ele>501.89</ele><time>2026-03-31T00:55:59.000Z</time></trkpt>
        <trkpt lat="29.5705748" lon="103.442002"><ele>502.3</ele><time>2026-03-31T00:56:09.000Z</time></trkpt>
        <trkpt lat="29.5706026" lon="103.4418689"><ele>501.71</ele><time>2026-03-31T00:56:19.000Z</time></trkpt>
        <trkpt lat="29.5706611" lon="103.4417549"><ele>501.66</ele><time>2026-03-31T00:56:29.000Z</time></trkpt>
        <trkpt lat="29.5707639" lon="103.441705"><ele>501.28</ele><time>2026-03-31T00:56:39.000Z</time></trkpt>
        <trkpt lat="29.5708677" lon="103.4416983"><ele>500.34</ele><time>2026-03-31T00:56:47.000Z</time></trkpt>
        <trkpt lat="29.5709632" lon="103.4417254"><ele>499.77</ele><time>2026-03-31T00:56:55.000Z</time></trkpt>
        <trkpt lat="29.5710245" lon="103.4416568"><ele>499.49</ele><time>2026-03-31T00:57:05.000Z</time></trkpt>
        <trkpt lat="29.5710838" lon="103.4415606"><ele>499.4</ele><time>2026-03-31T00:57:13.000Z</time></trkpt>
        <trkpt lat="29.5711356" lon="103.4414645"><ele>499.02</ele><time>2026-03-31T00:57:21.000Z</time></trkpt>
        <trkpt lat="29.5712001" lon="103.4413795"><ele>498.16</ele><time>2026-03-31T00:57:29.000Z</time></trkpt>
        <trkpt lat="29.5712771" lon="103.4413172"><ele>498.03</ele><time>2026-03-31T00:57:37.000Z</time></trkpt>
        <trkpt lat="29.5713625" lon="103.441267"><ele>498.13</ele><time>2026-03-31T00:57:45.000Z</time></trkpt>
        <trkpt lat="29.5714592" lon="103.4412593"><ele>498.91</ele><time>2026-03-31T00:57:55.000Z</time></trkpt>
        <trkpt lat="29.5715688" lon="103.4412577"><ele>499.43</ele><time>2026-03-31T00:58:05.000Z</time></trkpt>
        <trkpt lat="29.5716753" lon="103.441298"><ele>499.47</ele><time>2026-03-31T00:58:15.000Z</time></trkpt>
        <trkpt lat="29.5717736" lon="103.4413298"><ele>498.8</ele><time>2026-03-31T00:58:23.000Z</time></trkpt>
        <trkpt lat="29.571859" lon="103.4413771"><ele>498.89</ele><time>2026-03-31T00:58:31.000Z</time></trkpt>
        <trkpt lat="29.5719323" lon="103.4414506"><ele>499.22</ele><time>2026-03-31T00:58:39.000Z</time></trkpt>
        <trkpt lat="29.5719794" lon="103.4415601"><ele>499.43</ele><time>2026-03-31T00:58:47.000Z</time></trkpt>
        <trkpt lat="29.5720112" lon="103.4416691"><ele>500</ele><time>2026-03-31T00:58:55.000Z</time></trkpt>
        <trkpt lat="29.5720382" lon="103.4417673"><ele>500.32</ele><time>2026-03-31T00:59:03.000Z</time></trkpt>
        <trkpt lat="29.5720722" lon="103.4418773"><ele>500.99</ele><time>2026-03-31T00:59:15.000Z</time></trkpt>
        <trkpt lat="29.5721223" lon="103.4419881"><ele>500.57</ele><time>2026-03-31T00:59:25.000Z</time></trkpt>
        <trkpt lat="29.5721659" lon="103.4420952"><ele>500.49</ele><time>2026-03-31T00:59:35.000Z</time></trkpt>
        <trkpt lat="29.5722131" lon="103.442214"><ele>499.44</ele><time>2026-03-31T00:59:45.000Z</time></trkpt>
        <trkpt lat="29.5722953" lon="103.4422505"><ele>498.01</ele><time>2026-03-31T01:00:01.000Z</time></trkpt>
        <trkpt lat="29.5723896" lon="103.4422048"><ele>499.32</ele><time>2026-03-31T01:00:31.000Z</time></trkpt>
        <trkpt lat="29.5724831" lon="103.4421594"><ele>500.69</ele><time>2026-03-31T01:00:41.000Z</time></trkpt>
        <trkpt lat="29.5725753" lon="103.4421207"><ele>501.02</ele><time>2026-03-31T01:00:55.000Z</time></trkpt>
        <trkpt lat="29.5725243" lon="103.4421474"><ele>499.92</ele><time>2026-03-31T01:01:25.000Z</time></trkpt>
        <trkpt lat="29.572427" lon="103.4422096"><ele>499.87</ele><time>2026-03-31T01:01:35.000Z</time></trkpt>
        <trkpt lat="29.5723406" lon="103.4422688"><ele>501.16</ele><time>2026-03-31T01:01:45.000Z</time></trkpt>
        <trkpt lat="29.5722645" lon="103.4423439"><ele>501.79</ele><time>2026-03-31T01:01:55.000Z</time></trkpt>
        <trkpt lat="29.5722058" lon="103.4424458"><ele>502.37</ele><time>2026-03-31T01:02:05.000Z</time></trkpt>
        <trkpt lat="29.5721701" lon="103.4425535"><ele>503.74</ele><time>2026-03-31T01:02:19.000Z</time></trkpt>
        <trkpt lat="29.5720994" lon="103.442627"><ele>503.57</ele><time>2026-03-31T01:02:27.000Z</time></trkpt>
        <trkpt lat="29.5720105" lon="103.4426411"><ele>503.43</ele><time>2026-03-31T01:02:39.000Z</time></trkpt>
        <trkpt lat="29.5719181" lon="103.4426091"><ele>500.73</ele><time>2026-03-31T01:02:49.000Z</time></trkpt>
        <trkpt lat="29.5718275" lon="103.4425426"><ele>498.83</ele><time>2026-03-31T01:03:01.000Z</time></trkpt>
        <trkpt lat="29.5717447" lon="103.4425568"><ele>496.04</ele><time>2026-03-31T01:03:09.000Z</time></trkpt>
        <trkpt lat="29.571713" lon="103.4426416"><ele>493.51</ele><time>2026-03-31T01:03:17.000Z</time></trkpt>
        <trkpt lat="29.5717056" lon="103.4427522"><ele>492.17</ele><time>2026-03-31T01:03:25.000Z</time></trkpt>
        <trkpt lat="29.5717041" lon="103.4428785"><ele>489.57</ele><time>2026-03-31T01:03:33.000Z</time></trkpt>
        <trkpt lat="29.5716842" lon="103.4429915"><ele>487.36</ele><time>2026-03-31T01:03:41.000Z</time></trkpt>
        <trkpt lat="29.5716287" lon="103.4430786"><ele>487.31</ele><time>2026-03-31T01:03:51.000Z</time></trkpt>
        <trkpt lat="29.5715668" lon="103.4431579"><ele>487.02</ele><time>2026-03-31T01:04:19.000Z</time></trkpt>
        <trkpt lat="29.5714949" lon="103.4432239"><ele>489.56</ele><time>2026-03-31T01:04:27.000Z</time></trkpt>
        <trkpt lat="29.5714167" lon="103.443314"><ele>491.02</ele><time>2026-03-31T01:04:39.000Z</time></trkpt>
        <trkpt lat="29.5713473" lon="103.4434046"><ele>492.81</ele><time>2026-03-31T01:04:49.000Z</time></trkpt>
        <trkpt lat="29.5712406" lon="103.4434239"><ele>495.97</ele><time>2026-03-31T01:05:03.000Z</time></trkpt>
        <trkpt lat="29.5711397" lon="103.4434012"><ele>497.33</ele><time>2026-03-31T01:05:11.000Z</time></trkpt>
        <trkpt lat="29.5710256" lon="103.443397"><ele>498.28</ele><time>2026-03-31T01:05:25.000Z</time></trkpt>
        <trkpt lat="29.570914" lon="103.4434191"><ele>497.74</ele><time>2026-03-31T01:05:33.000Z</time></trkpt>
        <trkpt lat="29.5708157" lon="103.4434652"><ele>498.94</ele><time>2026-03-31T01:05:43.000Z</time></trkpt>
        <trkpt lat="29.5707156" lon="103.4435099"><ele>496.99</ele><time>2026-03-31T01:05:53.000Z</time></trkpt>
        <trkpt lat="29.5706173" lon="103.4435566"><ele>494.18</ele><time>2026-03-31T01:06:01.000Z</time></trkpt>
        <trkpt lat="29.5705224" lon="103.4435729"><ele>493.33</ele><time>2026-03-31T01:06:09.000Z</time></trkpt>
        <trkpt lat="29.5704353" lon="103.4436046"><ele>493.57</ele><time>2026-03-31T01:06:19.000Z</time></trkpt>
        <trkpt lat="29.5703355" lon="103.4436162"><ele>495.18</ele><time>2026-03-31T01:06:29.000Z</time></trkpt>
        <trkpt lat="29.5702391" lon="103.4436428"><ele>493.66</ele><time>2026-03-31T01:06:39.000Z</time></trkpt>
        <trkpt lat="29.5701396" lon="103.4436686"><ele>493.54</ele><time>2026-03-31T01:06:49.000Z</time></trkpt>
        <trkpt lat="29.5700316" lon="103.4436852"><ele>492.94</ele><time>2026-03-31T01:06:57.000Z</time></trkpt>
        <trkpt lat="29.5699999" lon="103.4436881"><ele>494.41</ele><time>2026-03-31T01:07:01.000Z</time></trkpt>
        <trkpt lat="29.5699308" lon="103.4437034"><ele>494.48</ele><time>2026-03-31T01:07:19.000Z</time></trkpt>
        <trkpt lat="29.56984" lon="103.4437049"><ele>494.96</ele><time>2026-03-31T01:07:35.000Z</time></trkpt>
        <trkpt lat="29.5697411" lon="103.4436979"><ele>493.13</ele><time>2026-03-31T01:07:49.000Z</time></trkpt>
        <trkpt lat="29.5696509" lon="103.4437393"><ele>491.9</ele><time>2026-03-31T01:08:01.000Z</time></trkpt>
        <trkpt lat="29.5695703" lon="103.4437953"><ele>491.54</ele><time>2026-03-31T01:08:11.000Z</time></trkpt>
        <trkpt lat="29.5694711" lon="103.4438223"><ele>491.78</ele><time>2026-03-31T01:08:59.000Z</time></trkpt>
        <trkpt lat="29.5693677" lon="103.4438389"><ele>487.04</ele><time>2026-03-31T01:09:07.000Z</time></trkpt>
        <trkpt lat="29.5692753" lon="103.4438655"><ele>484.47</ele><time>2026-03-31T01:09:17.000Z</time></trkpt>
        <trkpt lat="29.569199" lon="103.4439448"><ele>483.07</ele><time>2026-03-31T01:09:25.000Z</time></trkpt>
        <trkpt lat="29.5691158" lon="103.4440186"><ele>483.37</ele><time>2026-03-31T01:09:33.000Z</time></trkpt>
        <trkpt lat="29.569028" lon="103.4440745"><ele>482.41</ele><time>2026-03-31T01:09:41.000Z</time></trkpt>
        <trkpt lat="29.5689317" lon="103.444138"><ele>481.99</ele><time>2026-03-31T01:09:51.000Z</time></trkpt>
        <trkpt lat="29.5688488" lon="103.4441963"><ele>482.36</ele><time>2026-03-31T01:09:59.000Z</time></trkpt>
        <trkpt lat="29.5687558" lon="103.4442359"><ele>482.36</ele><time>2026-03-31T01:10:07.000Z</time></trkpt>
        <trkpt lat="29.5686594" lon="103.4442223"><ele>482.34</ele><time>2026-03-31T01:10:17.000Z</time></trkpt>
        <trkpt lat="29.5685899" lon="103.4441277"><ele>480.98</ele><time>2026-03-31T01:10:27.000Z</time></trkpt>
        <trkpt lat="29.568575" lon="103.4440355"><ele>479.92</ele><time>2026-03-31T01:10:37.000Z</time></trkpt>
        <trkpt lat="29.568575" lon="103.4440355"><ele>479.92</ele><time>2026-03-31T01:10:39.000Z</time></trkpt>
      </trkseg>
  </trk>
</gpx>